Data Archive--November, 2005

Date Time Heat Index Current Temp Wind Chill High Temp Low Temp Humidity Dew Point Wind Speed Gust Wind Direction Rain Barometer
11/01/2005 12:00 a 42.1 42.1 42.1 42.2 42.0 88 38.8 0.0 0.0 --- 0.00 30.022
11/01/2005 12:10 a 41.9 41.9 41.9 42.1 41.8 88 38.6 0.0 0.0 --- 0.00 30.019
11/01/2005 12:20 a 41.7 41.7 41.7 41.8 41.5 88 38.4 0.0 0.0 --- 0.00 30.012
11/01/2005 12:30 a 41.4 41.4 41.4 41.5 41.3 89 38.4 0.0 0.0 --- 0.00 30.019
11/01/2005 12:40 a 41.2 41.2 41.2 41.3 41.1 89 38.2 0.0 0.0 --- 0.00 30.015
11/01/2005 12:50 a 41.0 41.0 41.0 41.1 40.9 90 38.3 0.0 0.0 --- 0.00 30.013
11/01/2005 1:00 a 40.9 40.9 40.9 41.0 40.9 90 38.2 0.0 0.0 --- 0.00 30.008
11/01/2005 1:10 a 40.8 40.8 40.8 40.9 40.8 89 37.8 0.0 0.0 --- 0.00 30.005
11/01/2005 1:20 a 40.7 40.7 40.7 40.8 40.6 89 37.7 0.0 0.0 --- 0.00 30.002
11/01/2005 1:30 a 40.5 40.5 40.5 40.6 40.3 89 37.5 0.0 0.0 --- 0.00 29.998
11/01/2005 1:40 a 40.2 40.2 40.2 40.4 40.1 90 37.5 0.0 0.0 --- 0.00 29.994
11/01/2005 1:50 a 40.0 40.0 40.0 40.1 39.9 90 37.3 0.0 0.0 --- 0.00 29.994
11/01/2005 2:00 a 39.8 39.8 39.8 39.9 39.7 90 37.1 0.0 0.0 --- 0.00 29.988
11/01/2005 2:10 a 39.6 39.6 39.6 39.7 39.5 90 36.9 0.0 0.0 --- 0.00 29.992
11/01/2005 2:20 a 39.4 39.4 39.4 39.5 39.3 91 37.0 0.0 0.0 --- 0.00 29.993
11/01/2005 2:30 a 39.3 39.3 39.3 39.4 39.2 91 36.9 0.0 0.0 --- 0.00 29.995
11/01/2005 2:40 a 39.2 39.2 39.2 39.3 39.2 91 36.8 0.0 0.0 --- 0.00 29.991
11/01/2005 2:50 a 39.1 39.1 39.1 39.2 39.0 91 36.7 0.0 0.0 --- 0.00 29.984
11/01/2005 3:00 a 38.9 38.9 38.9 39.0 38.8 91 36.5 0.0 0.0 --- 0.00 29.980
11/01/2005 3:10 a 38.8 38.8 38.8 38.8 38.7 91 36.4 0.0 0.0 --- 0.00 29.974
11/01/2005 3:20 a 38.7 38.7 38.7 38.7 38.6 91 36.3 0.0 0.0 --- 0.00 29.970
11/01/2005 3:30 a 38.5 38.5 38.5 38.6 38.4 91 36.1 0.0 0.0 --- 0.00 29.968
11/01/2005 3:40 a 38.3 38.3 38.3 38.4 38.2 91 35.9 0.0 0.0 --- 0.00 29.969
11/01/2005 3:50 a 38.1 38.1 38.1 38.2 38.0 91 35.7 0.0 0.0 --- 0.00 29.968
11/01/2005 4:00 a 38.0 38.0 38.0 38.0 37.9 91 35.6 0.0 0.0 --- 0.00 29.969
11/01/2005 4:10 a 37.9 37.9 37.9 37.9 37.9 91 35.5 0.0 0.0 --- 0.00 29.967
11/01/2005 4:20 a 37.8 37.8 37.8 37.9 37.7 91 35.4 0.0 0.0 --- 0.00 29.961
11/01/2005 4:30 a 37.6 37.6 37.6 37.7 37.5 91 35.2 0.0 0.0 --- 0.00 29.959
11/01/2005 4:40 a 37.5 37.5 37.5 37.6 37.3 91 35.1 0.0 0.0 --- 0.00 29.956
11/01/2005 4:50 a 37.3 37.3 37.3 37.4 37.2 91 34.9 0.0 0.0 --- 0.00 29.953
11/01/2005 5:00 a 37.2 37.2 37.2 37.2 37.1 92 35.1 0.0 0.0 --- 0.00 29.956
11/01/2005 5:10 a 37.1 37.1 37.1 37.2 37.0 92 35.0 0.0 0.0 --- 0.00 29.959
11/01/2005 5:20 a 36.9 36.9 36.9 37.1 36.8 92 34.8 0.0 0.0 --- 0.00 29.960
11/01/2005 5:30 a 36.8 36.8 36.8 36.9 36.8 92 34.7 0.0 0.0 --- 0.00 29.959
11/01/2005 5:40 a 36.7 36.7 36.7 36.8 36.7 92 34.6 0.0 0.0 --- 0.00 29.960
11/01/2005 5:50 a 36.6 36.6 36.6 36.7 36.5 92 34.5 0.0 0.0 --- 0.00 29.958
11/01/2005 6:00 a 36.5 36.5 36.5 36.6 36.4 92 34.4 0.0 0.0 --- 0.00 29.962
11/01/2005 6:10 a 36.4 36.4 36.4 36.5 36.2 92 34.3 0.0 0.0 --- 0.00 29.959
11/01/2005 6:20 a 36.2 36.2 36.2 36.3 36.2 92 34.1 0.0 0.0 --- 0.00 29.963
11/01/2005 6:30 a 36.2 36.2 36.2 36.2 36.1 92 34.1 0.0 0.0 --- 0.00 29.962
11/01/2005 6:40 a 36.1 36.1 36.1 36.1 36.0 92 34.0 0.0 0.0 --- 0.00 29.962
11/01/2005 6:50 a 35.9 35.9 35.9 36.0 35.8 92 33.8 0.0 0.0 --- 0.00 29.965
11/01/2005 7:00 a 35.8 35.8 35.8 35.8 35.7 92 33.7 0.0 0.0 --- 0.00 29.965
11/01/2005 7:10 a 35.7 35.7 35.7 35.8 35.7 92 33.6 0.0 0.0 --- 0.00 29.965
11/01/2005 7:20 a 35.7 35.7 35.7 35.7 35.6 92 33.6 0.0 0.0 --- 0.00 29.964
11/01/2005 7:30 a 35.7 35.7 35.7 35.8 35.7 93 33.9 0.0 0.0 --- 0.00 29.967
11/01/2005 7:40 a 35.9 35.9 35.9 36.1 35.8 93 34.1 0.0 0.0 --- 0.00 29.966
11/01/2005 7:50 a 36.2 36.2 36.2 36.3 36.1 93 34.4 0.0 0.0 --- 0.00 29.969
11/01/2005 8:00 a 36.5 36.5 36.5 36.7 36.3 94 34.9 0.0 0.0 --- 0.00 29.968
11/01/2005 8:10 a 37.0 37.0 37.0 37.3 36.7 94 35.4 0.0 0.0 --- 0.00 29.970
11/01/2005 8:20 a 37.7 37.7 37.7 38.1 37.4 95 36.4 0.0 0.0 --- 0.00 29.969
11/01/2005 8:30 a 38.9 38.9 38.9 39.7 38.2 96 37.9 0.0 0.0 --- 0.00 29.969
11/01/2005 8:40 a 40.4 40.4 40.4 41.2 39.7 95 39.1 0.0 0.0 --- 0.00 29.967
11/01/2005 8:50 a 42.1 42.1 42.1 43.0 41.2 96 41.0 0.0 0.0 --- 0.00 29.966
11/01/2005 9:00 a 43.7 43.7 43.7 44.4 43.0 95 42.4 0.0 0.0 --- 0.00 29.962
11/01/2005 9:10 a 45.2 45.2 45.2 45.9 44.4 94 43.6 0.0 0.0 --- 0.00 29.969
11/01/2005 9:20 a 46.6 46.6 46.6 47.2 46.0 92 44.4 0.0 0.0 --- 0.00 29.963
11/01/2005 9:30 a 48.0 48.0 48.0 48.9 47.2 88 44.6 0.0 0.0 --- 0.00 29.959
11/01/2005 9:40 a 49.6 49.6 49.6 50.3 48.9 84 45.0 0.0 0.0 --- 0.00 29.959
11/01/2005 9:50 a 50.9 50.9 50.9 51.4 50.3 81 45.3 0.0 0.0 --- 0.00 29.958
11/01/2005 10:00 a 51.9 51.9 51.9 52.3 51.4 80 45.9 0.0 0.0 --- 0.00 29.951
11/01/2005 10:10 a 52.7 52.7 52.7 53.2 52.4 78 46.0 0.0 0.0 --- 0.00 29.946
11/01/2005 10:20 a 53.6 53.6 53.6 54.1 53.2 77 46.6 0.0 0.0 --- 0.00 29.938
11/01/2005 10:30 a 54.6 54.6 54.6 55.2 54.0 74 46.5 0.0 0.0 --- 0.00 29.930
11/01/2005 10:40 a 55.8 55.8 55.8 56.3 55.2 71 46.6 0.0 0.0 --- 0.00 29.931
11/01/2005 10:50 a 56.9 56.9 56.9 57.5 56.4 69 46.8 0.0 0.0 --- 0.00 29.920
11/01/2005 11:00 a 58.4 58.4 58.4 59.3 57.5 66 47.1 0.0 0.0 --- 0.00 29.916
11/01/2005 11:10 a 59.9 59.9 59.9 60.4 59.3 62 46.9 0.0 0.0 --- 0.00 29.912
11/01/2005 11:20 a 60.8 60.8 60.8 61.3 60.4 62 47.7 0.0 0.0 --- 0.00 29.907
11/01/2005 11:30 a 61.6 61.6 61.6 62.0 61.3 58 46.7 0.0 0.0 --- 0.00 29.898
11/01/2005 11:40 a 62.4 62.4 62.4 62.9 62.0 56 46.5 0.0 4.0 N 0.00 29.893
11/01/2005 11:50 a 63.4 63.4 63.4 63.8 62.9 52 45.5 1.0 5.0 N 0.00 29.891
11/01/2005 12:00 p 64.1 64.1 64.1 64.2 63.8 52 46.1 0.0 3.0 N 0.00 29.885
11/01/2005 12:10 p 64.3 64.3 64.3 64.4 64.2 53 46.8 0.0 0.0 --- 0.00 29.884
11/01/2005 12:20 p 64.6 64.6 64.6 64.8 64.4 51 46.1 0.0 2.0 S 0.00 29.869
11/01/2005 12:30 p 65.1 65.1 65.1 65.4 64.8 51 46.5 0.0 2.0 S 0.00 29.864
11/01/2005 12:40 p 65.5 65.5 65.5 65.6 65.4 49 45.9 0.0 2.0 S 0.00 29.856
11/01/2005 12:50 p 65.7 65.7 65.7 65.8 65.5 50 46.6 0.0 2.0 W 0.00 29.849
11/01/2005 1:00 p 65.9 65.9 65.9 66.1 65.8 50 46.8 0.0 0.0 --- 0.00 29.841
11/01/2005 1:10 p 66.3 66.3 66.3 66.5 66.1 48 46.0 0.0 2.0 W 0.00 29.837
11/01/2005 1:20 p 66.7 66.7 66.7 66.8 66.5 48 46.4 0.0 3.0 NNW 0.00 29.828
11/01/2005 1:30 p 66.9 66.9 66.9 67.1 66.8 45 44.9 0.0 2.0 N 0.00 29.822
11/01/2005 1:40 p 67.2 67.2 67.2 67.3 67.1 44 44.6 0.0 1.0 N 0.00 29.815
11/01/2005 1:50 p 67.3 67.3 67.3 67.5 67.3 44 44.7 0.0 3.0 ENE 0.00 29.810
11/01/2005 2:00 p 67.5 67.5 67.5 67.5 67.4 42 43.6 0.0 3.0 ESE 0.00 29.807
11/01/2005 2:10 p 67.3 67.3 67.3 67.5 67.2 45 45.3 0.0 2.0 ESE 0.00 29.799
11/01/2005 2:20 p 67.2 67.2 67.2 67.4 67.1 45 45.2 0.0 2.0 ESE 0.00 29.798
11/01/2005 2:30 p 67.5 67.5 67.5 67.6 67.4 42 43.6 0.0 3.0 SE 0.00 29.794
11/01/2005 2:40 p 67.6 67.6 67.6 67.7 67.5 43 44.3 0.0 2.0 NNW 0.00 29.787
11/01/2005 2:50 p 67.4 67.4 67.4 67.5 67.2 43 44.2 0.0 1.0 --- 0.00 29.779
11/01/2005 3:00 p 67.1 67.1 67.1 67.2 67.0 43 43.9 0.0 1.0 NNW 0.00 29.777
11/01/2005 3:10 p 67.0 67.0 67.0 67.1 67.0 44 44.4 0.0 1.0 NNW 0.00 29.772
11/01/2005 3:20 p 66.9 66.9 66.9 67.0 66.8 43 43.7 0.0 1.0 NNW 0.00 29.767
11/01/2005 3:30 p 66.9 66.9 66.9 67.0 66.9 43 43.7 0.0 2.0 NNW 0.00 29.757
11/01/2005 3:40 p 66.9 66.9 66.9 67.0 66.8 44 44.3 0.0 1.0 NNW 0.00 29.758
11/01/2005 3:50 p 66.7 66.7 66.7 66.8 66.6 44 44.1 0.0 2.0 SW 0.00 29.759
11/01/2005 4:00 p 66.4 66.4 66.4 66.6 66.2 45 44.4 0.0 0.0 --- 0.00 29.754
11/01/2005 4:10 p 66.0 66.0 66.0 66.2 65.7 46 44.6 0.0 1.0 SW 0.00 29.752
11/01/2005 4:20 p 65.5 65.5 65.5 65.8 65.3 47 44.8 0.0 2.0 SW 0.00 29.752
11/01/2005 4:30 p 65.2 65.2 65.2 65.3 65.0 47 44.5 0.0 1.0 SW 0.00 29.746
11/01/2005 4:40 p 65.0 65.0 65.0 65.1 64.9 46 43.7 0.0 2.0 WNW 0.00 29.744
11/01/2005 4:50 p 64.8 64.8 64.8 64.9 64.6 48 44.7 0.0 1.0 WNW 0.00 29.743
11/01/2005 5:00 p 64.4 64.4 64.4 64.6 64.0 49 44.8 0.0 0.0 --- 0.00 29.742
11/01/2005 5:10 p 63.7 63.7 63.7 64.0 63.4 50 44.7 0.0 0.0 --- 0.00 29.745
11/01/2005 5:20 p 63.0 63.0 63.0 63.4 62.7 51 44.6 0.0 0.0 --- 0.00 29.753
11/01/2005 5:30 p 62.3 62.3 62.3 62.7 62.0 53 45.0 0.0 0.0 --- 0.00 29.754
11/01/2005 5:40 p 61.6 61.6 61.6 62.0 61.2 54 44.8 0.0 0.0 --- 0.00 29.753
11/01/2005 5:50 p 60.7 60.7 60.7 61.2 60.3 56 44.9 0.0 0.0 --- 0.00 29.756
11/01/2005 6:00 p 59.9 59.9 59.9 60.3 59.5 59 45.6 0.0 0.0 --- 0.00 29.756
11/01/2005 6:10 p 59.1 59.1 59.1 59.5 58.8 60 45.2 0.0 0.0 --- 0.00 29.758
11/01/2005 6:20 p 58.5 58.5 58.5 58.8 58.2 62 45.5 0.0 0.0 --- 0.00 29.754
11/01/2005 6:30 p 57.9 57.9 57.9 58.2 57.6 62 45.0 0.0 0.0 --- 0.00 29.747
11/01/2005 6:40 p 57.5 57.5 57.5 57.7 57.4 63 45.0 0.0 0.0 --- 0.00 29.747
11/01/2005 6:50 p 57.3 57.3 57.3 57.4 57.1 64 45.2 0.0 0.0 --- 0.00 29.754
11/01/2005 7:00 p 57.0 57.0 57.0 57.2 56.8 65 45.4 0.0 0.0 --- 0.00 29.753
11/01/2005 7:10 p 56.7 56.7 56.7 56.8 56.7 65 45.1 0.0 0.0 --- 0.00 29.755
11/01/2005 7:20 p 56.7 56.7 56.7 56.7 56.7 63 44.3 0.0 0.0 --- 0.00 29.748
11/01/2005 7:30 p 56.8 56.8 56.8 56.8 56.7 62 43.9 0.0 0.0 --- 0.00 29.743
11/01/2005 7:40 p 56.9 56.9 56.9 57.1 56.8 61 43.6 0.0 0.0 --- 0.00 29.741
11/01/2005 7:50 p 57.2 57.2 57.2 57.3 57.0 60 43.5 0.0 0.0 --- 0.00 29.738
11/01/2005 8:00 p 57.3 57.3 57.3 57.3 57.2 60 43.6 0.0 1.0 WNW 0.00 29.735
11/01/2005 8:10 p 57.2 57.2 57.2 57.3 57.1 59 43.0 0.0 0.0 --- 0.00 29.740
11/01/2005 8:20 p 57.0 57.0 57.0 57.1 56.9 60 43.3 0.0 0.0 --- 0.00 29.739
11/01/2005 8:30 p 56.7 56.7 56.7 56.9 56.5 61 43.4 0.0 0.0 --- 0.00 29.733
11/01/2005 8:40 p 56.2 56.2 56.2 56.4 56.1 61 42.9 0.0 0.0 --- 0.00 29.735
11/01/2005 8:50 p 55.9 55.9 55.9 56.1 55.7 63 43.5 0.0 0.0 --- 0.00 29.738
11/01/2005 9:00 p 55.4 55.4 55.4 55.7 55.1 64 43.4 0.0 0.0 --- 0.00 29.734
11/01/2005 9:10 p 55.0 55.0 55.0 55.1 54.8 65 43.5 0.0 0.0 --- 0.00 29.738
11/01/2005 9:20 p 54.7 54.7 54.7 54.8 54.5 66 43.6 0.0 0.0 --- 0.00 29.733
11/01/2005 9:30 p 54.4 54.4 54.4 54.6 54.3 66 43.3 0.0 0.0 --- 0.00 29.736
11/01/2005 9:40 p 54.1 54.1 54.1 54.3 54.0 67 43.4 0.0 0.0 --- 0.00 29.736
11/01/2005 9:50 p 54.0 54.0 54.0 54.0 53.9 71 44.8 0.0 0.0 --- 0.00 29.735
11/01/2005 10:00 p 54.2 54.2 54.2 54.3 54.0 69 44.3 0.0 0.0 --- 0.00 29.733
11/01/2005 10:10 p 54.3 54.3 54.3 54.3 54.2 72 45.5 0.0 0.0 --- 0.00 29.736
11/01/2005 10:20 p 54.5 54.5 54.5 54.7 54.2 69 44.6 0.0 0.0 --- 0.00 29.734
11/01/2005 10:30 p 54.6 54.6 54.6 54.7 54.5 69 44.6 0.0 0.0 --- 0.00 29.730
11/01/2005 10:40 p 54.4 54.4 54.4 54.5 54.2 70 44.8 0.0 0.0 --- 0.00 29.729
11/01/2005 10:50 p 54.1 54.1 54.1 54.2 54.0 72 45.3 0.0 0.0 --- 0.00 29.724
11/01/2005 11:00 p 53.9 53.9 53.9 54.0 53.7 72 45.1 0.0 2.0 WNW 0.00 29.728
11/01/2005 11:10 p 53.6 53.6 53.6 53.7 53.5 72 44.8 1.0 3.0 SE 0.00 29.739
11/01/2005 11:20 p 53.9 53.9 53.9 53.9 53.7 72 45.1 0.0 1.0 --- 0.00 29.731
11/01/2005 11:30 p 53.8 53.8 53.8 53.9 53.6 73 45.4 0.0 0.0 --- 0.00 29.721
11/01/2005 11:40 p 53.5 53.5 53.5 53.6 53.4 73 45.1 0.0 0.0 --- 0.00 29.722
11/01/2005 11:50 p 53.3 53.3 53.3 53.4 53.2 75 45.6 0.0 0.0 --- 0.00 29.723
11/02/2005 12:00 a 53.1 53.1 53.1 53.2 52.9 75 45.4 0.0 0.0 --- 0.00 29.724
11/02/2005 12:10 a 53.0 53.0 53.0 53.0 52.9 74 44.9 0.0 0.0 --- 0.00 29.722
11/02/2005 12:20 a 53.0 53.0 53.0 53.1 53.0 74 44.9 0.0 0.0 --- 0.00 29.729
11/02/2005 12:30 a 53.2 53.2 53.2 53.5 53.1 73 44.8 0.0 1.0 SE 0.00 29.738
11/02/2005 12:40 a 53.8 53.8 53.8 54.2 53.5 72 45.0 0.0 3.0 SE 0.00 29.736
11/02/2005 12:50 a 54.8 54.8 54.8 55.3 54.2 71 45.6 0.0 2.0 SE 0.00 29.737
11/02/2005 1:00 a 55.7 55.7 55.7 55.9 55.3 70 46.1 0.0 3.0 SE 0.00 29.737
11/02/2005 1:10 a 56.1 56.1 56.1 56.2 55.9 69 46.1 1.0 4.0 SE 0.00 29.737
11/02/2005 1:20 a 56.2 56.2 56.2 56.2 56.2 70 46.6 0.0 2.0 SE 0.00 29.737
11/02/2005 1:30 a 56.1 56.1 56.1 56.2 56.1 69 46.1 1.0 4.0 SE 0.00 29.735
11/02/2005 1:40 a 56.1 56.1 56.1 56.1 56.0 70 46.5 0.0 2.0 SE 0.00 29.737
11/02/2005 1:50 a 55.9 55.9 55.9 56.0 55.7 73 47.4 0.0 1.0 SE 0.00 29.745
11/02/2005 2:00 a 55.5 55.5 55.5 55.7 55.4 71 46.3 0.0 5.0 SE 0.00 29.752
11/02/2005 2:10 a 55.4 55.4 55.4 55.4 55.3 72 46.5 1.0 6.0 SE 0.00 29.754
11/02/2005 2:20 a 55.2 55.2 55.2 55.3 55.1 72 46.3 1.0 4.0 ESE 0.00 29.767
11/02/2005 2:30 a 54.9 54.9 54.9 55.1 54.7 69 44.9 1.0 6.0 SE 0.00 29.772
11/02/2005 2:40 a 54.5 54.5 54.5 54.8 54.3 68 44.2 1.0 8.0 SE 0.00 29.778
11/02/2005 2:50 a 54.1 54.1 54.1 54.3 53.8 68 43.8 0.0 5.0 SE 0.00 29.776
11/02/2005 3:00 a 53.5 53.5 53.5 53.8 53.2 69 43.6 0.0 3.0 SE 0.00 29.778
11/02/2005 3:10 a 52.9 52.9 52.9 53.2 52.7 69 43.0 1.0 4.0 SE 0.00 29.779
11/02/2005 3:20 a 52.5 52.5 52.5 52.7 52.3 70 43.0 0.0 4.0 SE 0.00 29.771
11/02/2005 3:30 a 52.1 52.1 52.1 52.3 51.8 70 42.6 0.0 3.0 SE 0.00 29.775
11/02/2005 3:40 a 51.6 51.6 51.6 51.8 51.3 71 42.5 0.0 2.0 SE 0.00 29.781
11/02/2005 3:50 a 51.1 51.1 51.1 51.3 51.0 72 42.4 0.0 2.0 SE 0.00 29.778
11/02/2005 4:00 a 50.7 50.7 50.7 51.0 50.4 73 42.4 0.0 1.0 --- 0.00 29.789
11/02/2005 4:10 a 50.0 50.0 50.0 50.3 49.7 75 42.4 0.0 1.0 NE 0.00 29.792
11/02/2005 4:20 a 49.4 49.4 49.4 49.7 49.2 76 42.2 0.0 0.0 --- 0.00 29.804
11/02/2005 4:30 a 48.9 48.9 48.9 49.2 48.7 77 42.0 0.0 0.0 --- 0.00 29.804
11/02/2005 4:40 a 48.4 48.4 48.4 48.7 48.1 79 42.2 0.0 0.0 --- 0.00 29.802
11/02/2005 4:50 a 47.7 47.7 47.7 48.1 47.5 80 41.8 0.0 0.0 --- 0.00 29.794
11/02/2005 5:00 a 47.3 47.3 47.3 47.5 47.2 81 41.8 0.0 0.0 --- 0.00 29.796
11/02/2005 5:10 a 47.0 47.0 47.0 47.2 46.7 81 41.5 0.0 0.0 --- 0.00 29.792
11/02/2005 5:20 a 46.4 46.4 46.4 46.7 46.2 82 41.2 0.0 0.0 --- 0.00 29.795
11/02/2005 5:30 a 45.9 45.9 45.9 46.2 45.5 85 41.7 0.0 0.0 --- 0.00 29.794
11/02/2005 5:40 a 45.3 45.3 45.3 45.5 45.2 86 41.4 0.0 0.0 --- 0.00 29.791
11/02/2005 5:50 a 45.0 45.0 45.0 45.2 44.9 86 41.1 0.0 0.0 --- 0.00 29.793
11/02/2005 6:00 a 44.7 44.7 44.7 44.9 44.6 86 40.8 0.0 0.0 --- 0.00 29.797
11/02/2005 6:10 a 44.4 44.4 44.4 44.6 44.2 87 40.8 0.0 0.0 --- 0.00 29.793
11/02/2005 6:20 a 44.0 44.0 44.0 44.2 43.9 87 40.4 0.0 0.0 --- 0.00 29.802
11/02/2005 6:30 a 43.8 43.8 43.8 43.9 43.7 88 40.5 0.0 0.0 --- 0.00 29.808
11/02/2005 6:40 a 43.6 43.6 43.6 43.7 43.4 89 40.6 0.0 0.0 --- 0.00 29.821
11/02/2005 6:50 a 43.5 43.5 43.5 43.6 43.4 89 40.5 0.0 0.0 --- 0.00 29.821
11/02/2005 7:00 a 43.5 43.5 43.5 43.6 43.5 88 40.2 0.0 0.0 --- 0.00 29.822
11/02/2005 7:10 a 43.6 43.6 43.6 43.7 43.5 88 40.3 0.0 0.0 --- 0.00 29.830
11/02/2005 7:20 a 43.7 43.7 43.7 43.7 43.7 88 40.4 0.0 0.0 --- 0.00 29.839
11/02/2005 7:30 a 43.7 43.7 43.7 43.7 43.7 88 40.4 0.0 0.0 --- 0.00 29.843
11/02/2005 7:40 a 43.7 43.7 43.7 43.8 43.7 88 40.4 0.0 0.0 --- 0.00 29.849
11/02/2005 7:50 a 43.9 43.9 43.9 44.1 43.8 86 40.0 0.0 0.0 --- 0.00 29.856
11/02/2005 8:00 a 44.4 44.4 44.4 44.9 44.0 83 39.6 0.0 2.0 ENE 0.00 29.855
11/02/2005 8:10 a 45.6 45.6 45.6 46.1 44.9 81 40.1 0.0 2.0 ESE 0.00 29.860
11/02/2005 8:20 a 46.8 46.8 46.8 47.6 46.1 76 39.6 0.0 3.0 ESE 0.00 29.859
11/02/2005 8:30 a 48.4 48.4 48.4 49.0 47.6 73 40.2 1.0 3.0 ESE 0.00 29.869
11/02/2005 8:40 a 49.4 49.4 49.4 49.7 49.0 70 40.0 0.0 2.0 NW 0.00 29.873
11/02/2005 8:50 a 49.9 49.9 49.9 50.2 49.7 69 40.1 0.0 3.0 SE 0.00 29.879
11/02/2005 9:00 a 50.3 50.3 50.3 50.5 50.1 68 40.2 0.0 6.0 ENE 0.00 29.878
11/02/2005 9:10 a 50.6 50.6 50.6 50.8 50.5 66 39.7 2.0 10.0 SE 0.00 29.878
11/02/2005 9:20 a 50.9 50.9 50.9 51.0 50.8 65 39.6 2.0 6.0 SE 0.00 29.881
11/02/2005 9:30 a 51.3 51.3 51.3 51.5 51.0 62 38.7 1.0 7.0 SE 0.00 29.887
11/02/2005 9:40 a 51.7 51.7 51.7 51.9 51.5 60 38.3 1.0 8.0 SE 0.00 29.887
11/02/2005 9:50 a 52.0 52.0 52.0 52.2 51.8 60 38.6 2.0 6.0 SE 0.00 29.885
11/02/2005 10:00 a 52.4 52.4 52.4 52.5 52.2 59 38.5 2.0 9.0 SE 0.00 29.886
11/02/2005 10:10 a 52.7 52.7 52.7 53.0 52.5 59 38.8 1.0 4.0 SE 0.00 29.890
11/02/2005 10:20 a 53.2 53.2 53.2 53.3 53.0 57 38.4 1.0 6.0 SE 0.00 29.892
11/02/2005 10:30 a 53.5 53.5 53.5 53.6 53.3 54 37.3 2.0 11.0 SE 0.00 29.900
11/02/2005 10:40 a 53.6 53.6 53.6 53.7 53.5 55 37.8 2.0 8.0 SE 0.00 29.901
11/02/2005 10:50 a 53.9 53.9 53.9 54.1 53.7 55 38.1 2.0 6.0 SE 0.00 29.895
11/02/2005 11:00 a 54.1 54.1 54.1 54.1 54.0 54 37.8 1.0 5.0 SE 0.00 29.907
11/02/2005 11:10 a 54.0 54.0 54.0 54.1 54.0 54 37.7 1.0 4.0 SSE 0.00 29.906
11/02/2005 11:20 a 54.1 54.1 54.1 54.2 54.1 53 37.4 1.0 5.0 SE 0.00 29.913
11/02/2005 11:30 a 54.3 54.3 54.3 54.3 54.2 52 37.1 1.0 7.0 SE 0.00 29.917
11/02/2005 11:40 a 54.3 54.3 54.3 54.3 54.2 52 37.1 2.0 6.0 SE 0.00 29.919
11/02/2005 11:50 a 54.5 54.5 54.5 54.8 54.3 49 35.7 1.0 6.0 SE 0.00 29.918
11/02/2005 12:00 p 54.9 54.9 54.9 55.1 54.7 48 35.6 2.0 7.0 SE 0.00 29.917
11/02/2005 12:10 p 55.1 55.1 55.1 55.2 55.0 47 35.3 2.0 7.0 SE 0.00 29.909
11/02/2005 12:20 p 55.3 55.3 55.3 55.6 55.2 47 35.4 2.0 6.0 SE 0.00 29.915
11/02/2005 12:30 p 55.7 55.7 55.7 55.8 55.6 47 35.8 2.0 9.0 SE 0.00 29.916
11/02/2005 12:40 p 55.9 55.9 55.9 56.0 55.8 45 34.9 2.0 8.0 SSE 0.00 29.901
11/02/2005 12:50 p 56.0 56.0 56.0 56.1 55.9 43 33.8 2.0 8.0 SSE 0.00 29.897
11/02/2005 1:00 p 56.2 56.2 56.2 56.4 56.0 44 34.6 1.0 7.0 S 0.00 29.893
11/02/2005 1:10 p 56.2 56.2 56.2 56.3 56.2 45 35.2 2.0 10.0 SE 0.00 29.882
11/02/2005 1:20 p 56.4 56.4 56.4 56.5 56.2 43 34.2 1.0 6.0 SE 0.00 29.889
11/02/2005 1:30 p 56.6 56.6 56.6 56.7 56.5 44 35.0 2.0 8.0 SE 0.00 29.889
11/02/2005 1:40 p 56.8 56.8 56.8 57.0 56.7 43 34.6 1.0 5.0 SE 0.00 29.888
11/02/2005 1:50 p 57.0 57.0 57.0 57.1 56.9 42 34.2 1.0 5.0 SE 0.00 29.885
11/02/2005 2:00 p 56.9 56.9 56.9 56.9 56.8 43 34.7 2.0 6.0 SE 0.00 29.883
11/02/2005 2:10 p 56.9 56.9 56.9 56.9 56.8 41 33.5 1.0 9.0 SE 0.00 29.887
11/02/2005 2:20 p 56.9 56.9 56.9 57.0 56.9 42 34.1 1.0 6.0 SE 0.00 29.890
11/02/2005 2:30 p 57.0 57.0 57.0 57.1 56.9 41 33.6 1.0 5.0 SE 0.00 29.887
11/02/2005 2:40 p 56.8 56.8 56.8 56.9 56.8 41 33.4 1.0 5.0 SE 0.00 29.884
11/02/2005 2:50 p 56.9 56.9 56.9 57.0 56.8 39 32.2 1.0 6.0 SE 0.00 29.892
11/02/2005 3:00 p 56.9 56.9 56.9 57.0 56.9 39 32.2 1.0 7.0 SE 0.00 29.899
11/02/2005 3:10 p 56.8 56.8 56.8 56.9 56.7 39 32.1 1.0 7.0 SE 0.00 29.905
11/02/2005 3:20 p 56.7 56.7 56.7 56.8 56.6 37 30.7 2.0 7.0 SE 0.00 29.903
11/02/2005 3:30 p 56.6 56.6 56.6 56.7 56.6 37 30.7 2.0 9.0 SE 0.00 29.906
11/02/2005 3:40 p 56.7 56.7 56.7 56.7 56.6 38 31.4 1.0 6.0 SE 0.00 29.913
11/02/2005 3:50 p 56.6 56.6 56.6 56.6 56.6 39 32.0 2.0 7.0 SE 0.00 29.916
11/02/2005 4:00 p 56.6 56.6 56.6 56.6 56.5 37 30.7 2.0 7.0 SE 0.00 29.916
11/02/2005 4:10 p 56.5 56.5 56.5 56.5 56.4 37 30.6 2.0 8.0 SE 0.00 29.921
11/02/2005 4:20 p 56.3 56.3 56.3 56.4 56.2 37 30.4 1.0 5.0 SE 0.00 29.925
11/02/2005 4:30 p 56.2 56.2 56.2 56.2 56.1 37 30.3 2.0 8.0 SE 0.00 29.929
11/02/2005 4:40 p 55.9 55.9 55.9 56.1 55.8 37 30.0 1.0 8.0 SE 0.00 29.929
11/02/2005 4:50 p 55.7 55.7 55.7 55.8 55.6 38 30.5 1.0 6.0 SE 0.00 29.933
11/02/2005 5:00 p 55.4 55.4 55.4 55.6 55.1 41 32.1 0.0 1.0 SE 0.00 29.941
11/02/2005 5:10 p 54.8 54.8 54.8 55.1 54.5 43 32.8 0.0 2.0 SE 0.00 29.945
11/02/2005 5:20 p 54.1 54.1 54.1 54.5 53.6 43 32.1 0.0 4.0 SE 0.00 29.950
11/02/2005 5:30 p 53.4 53.4 53.4 53.6 53.3 44 32.1 0.0 3.0 SE 0.00 29.955
11/02/2005 5:40 p 53.3 53.3 53.3 53.3 53.2 43 31.4 0.0 3.0 SE 0.00 29.960
11/02/2005 5:50 p 53.2 53.2 53.2 53.3 53.1 45 32.4 0.0 2.0 SE 0.00 29.966
11/02/2005 6:00 p 52.9 52.9 52.9 53.1 52.7 46 32.7 0.0 4.0 SE 0.00 29.971
11/02/2005 6:10 p 52.4 52.4 52.4 52.7 52.1 48 33.3 0.0 0.0 --- 0.00 29.978
11/02/2005 6:20 p 51.6 51.6 51.6 52.1 51.2 48 32.6 0.0 0.0 --- 0.00 29.989
11/02/2005 6:30 p 50.8 50.8 50.8 51.2 50.5 50 32.8 0.0 0.0 --- 0.00 29.994
11/02/2005 6:40 p 50.2 50.2 50.2 50.5 49.9 50 32.3 0.0 0.0 --- 0.00 30.001
11/02/2005 6:50 p 49.7 49.7 49.7 49.9 49.4 54 33.7 0.0 1.0 SE 0.00 30.003
11/02/2005 7:00 p 49.1 49.1 49.1 49.4 48.8 57 34.5 0.0 0.0 --- 0.00 30.007
11/02/2005 7:10 p 48.3 48.3 48.3 48.8 47.9 60 35.1 0.0 0.0 --- 0.00 30.011
11/02/2005 7:20 p 47.5 47.5 47.5 47.9 47.4 58 33.5 0.0 2.0 SE 0.00 30.011
11/02/2005 7:30 p 48.0 48.0 48.0 48.4 47.5 61 35.2 0.0 1.0 SE 0.00 30.013
11/02/2005 7:40 p 48.3 48.3 48.3 48.4 48.1 58 34.2 0.0 1.0 SE 0.00 30.012
11/02/2005 7:50 p 48.1 48.1 48.1 48.2 48.1 61 35.3 0.0 0.0 --- 0.00 30.016
11/02/2005 8:00 p 47.8 47.8 47.8 48.1 47.6 63 35.8 0.0 0.0 --- 0.00 30.021
11/02/2005 8:10 p 47.1 47.1 47.1 47.6 46.6 64 35.6 0.0 0.0 --- 0.00 30.032
11/02/2005 8:20 p 46.3 46.3 46.3 46.6 45.9 65 35.2 0.0 0.0 --- 0.00 30.036
11/02/2005 8:30 p 45.7 45.7 45.7 45.9 45.4 66 35.0 0.0 0.0 --- 0.00 30.040
11/02/2005 8:40 p 44.9 44.9 44.9 45.3 44.5 68 35.0 0.0 0.0 --- 0.00 30.037
11/02/2005 8:50 p 44.2 44.2 44.2 44.5 44.0 69 34.7 0.0 0.0 --- 0.00 30.039
11/02/2005 9:00 p 43.8 43.8 43.8 44.0 43.7 71 35.0 0.0 0.0 --- 0.00 30.047
11/02/2005 9:10 p 43.4 43.4 43.4 43.7 43.1 73 35.3 0.0 0.0 --- 0.00 30.050
11/02/2005 9:20 p 42.8 42.8 42.8 43.1 42.5 73 34.8 0.0 0.0 --- 0.00 30.052
11/02/2005 9:30 p 42.2 42.2 42.2 42.5 42.0 74 34.5 0.0 0.0 --- 0.00 30.059
11/02/2005 9:40 p 41.7 41.7 41.7 42.0 41.5 76 34.7 0.0 0.0 --- 0.00 30.063
11/02/2005 9:50 p 41.4 41.4 41.4 41.5 41.2 77 34.7 0.0 0.0 --- 0.00 30.063
11/02/2005 10:00 p 41.0 41.0 41.0 41.2 40.9 77 34.4 0.0 0.0 --- 0.00 30.063
11/02/2005 10:10 p 40.7 40.7 40.7 40.9 40.5 80 35.0 0.0 0.0 --- 0.00 30.063
11/02/2005 10:20 p 40.4 40.4 40.4 40.5 40.3 80 34.7 0.0 0.0 --- 0.00 30.063
11/02/2005 10:30 p 40.1 40.1 40.1 40.3 39.9 81 34.7 0.0 0.0 --- 0.00 30.068
11/02/2005 10:40 p 39.6 39.6 39.6 39.9 39.4 81 34.3 0.0 0.0 --- 0.00 30.067
11/02/2005 10:50 p 39.2 39.2 39.2 39.4 39.1 83 34.5 0.0 0.0 --- 0.00 30.065
11/02/2005 11:00 p 39.0 39.0 39.0 39.1 38.9 83 34.3 0.0 0.0 --- 0.00 30.068
11/02/2005 11:10 p 38.9 38.9 38.9 38.9 38.8 84 34.5 0.0 0.0 --- 0.00 30.072
11/02/2005 11:20 p 38.8 38.8 38.8 38.9 38.6 84 34.4 0.0 0.0 --- 0.00 30.073
11/02/2005 11:30 p 38.5 38.5 38.5 38.6 38.3 84 34.1 0.0 0.0 --- 0.00 30.075
11/02/2005 11:40 p 38.1 38.1 38.1 38.3 38.0 86 34.3 0.0 0.0 --- 0.00 30.079
11/02/2005 11:50 p 37.9 37.9 37.9 38.0 37.8 87 34.4 0.0 0.0 --- 0.00 30.078
11/03/2005 12:00 a 37.7 37.7 37.7 37.8 37.5 87 34.2 0.0 0.0 --- 0.00 30.083
11/03/2005 12:10 a 37.4 37.4 37.4 37.6 37.3 88 34.2 0.0 0.0 --- 0.00 30.081
11/03/2005 12:20 a 37.3 37.3 37.3 37.4 37.2 87 33.8 0.0 0.0 --- 0.00 30.083
11/03/2005 12:30 a 37.1 37.1 37.1 37.2 37.0 88 33.9 0.0 0.0 --- 0.00 30.086
11/03/2005 12:40 a 36.9 36.9 36.9 37.0 36.8 88 33.7 0.0 0.0 --- 0.00 30.089
11/03/2005 12:50 a 36.7 36.7 36.7 36.8 36.7 88 33.5 0.0 0.0 --- 0.00 30.091
11/03/2005 1:00 a 36.6 36.6 36.6 36.7 36.5 88 33.4 0.0 0.0 --- 0.00 30.086
11/03/2005 1:10 a 36.3 36.3 36.3 36.5 36.2 88 33.1 0.0 0.0 --- 0.00 30.087
11/03/2005 1:20 a 36.1 36.1 36.1 36.2 36.0 88 32.9 0.0 0.0 --- 0.00 30.078
11/03/2005 1:30 a 35.9 35.9 35.9 36.1 35.8 89 33.0 0.0 0.0 --- 0.00 30.079
11/03/2005 1:40 a 35.7 35.7 35.7 35.8 35.6 89 32.8 0.0 0.0 --- 0.00 30.083
11/03/2005 1:50 a 35.5 35.5 35.5 35.6 35.5 89 32.6 0.0 0.0 --- 0.00 30.083
11/03/2005 2:00 a 35.4 35.4 35.4 35.5 35.3 89 32.5 0.0 0.0 --- 0.00 30.093
11/03/2005 2:10 a 35.2 35.2 35.2 35.3 35.0 89 32.3 0.0 0.0 --- 0.00 30.094
11/03/2005 2:20 a 34.9 34.9 34.9 35.1 34.8 89 32.0 0.0 0.0 --- 0.00 30.089
11/03/2005 2:30 a 34.6 34.6 34.6 34.8 34.5 89 31.7 0.0 0.0 --- 0.00 30.094
11/03/2005 2:40 a 34.5 34.5 34.5 34.5 34.4 90 31.9 0.0 0.0 --- 0.00 30.088
11/03/2005 2:50 a 34.4 34.4 34.4 34.4 34.3 90 31.8 0.0 0.0 --- 0.00 30.088
11/03/2005 3:00 a 34.3 34.3 34.3 34.3 34.3 91 32.0 0.0 0.0 --- 0.00 30.083
11/03/2005 3:10 a 34.2 34.2 34.2 34.3 34.2 90 31.6 0.0 0.0 --- 0.00 30.082
11/03/2005 3:20 a 34.2 34.2 34.2 34.2 34.1 91 31.9 0.0 0.0 --- 0.00 30.081
11/03/2005 3:30 a 34.1 34.1 34.1 34.2 34.1 91 31.8 0.0 0.0 --- 0.00 30.077
11/03/2005 3:40 a 34.1 34.1 34.1 34.1 33.9 91 31.8 0.0 0.0 --- 0.00 30.071
11/03/2005 3:50 a 33.9 33.9 33.9 34.0 33.9 90 31.3 0.0 0.0 --- 0.00 30.073
11/03/2005 4:00 a 33.8 33.8 33.8 33.9 33.8 91 31.5 0.0 0.0 --- 0.00 30.069
11/03/2005 4:10 a 33.8 33.8 33.8 33.8 33.7 91 31.5 0.0 0.0 --- 0.00 30.072
11/03/2005 4:20 a 33.7 33.7 33.7 33.8 33.7 91 31.4 0.0 0.0 --- 0.00 30.067
11/03/2005 4:30 a 33.6 33.6 33.6 33.7 33.6 91 31.3 0.0 0.0 --- 0.00 30.062
11/03/2005 4:40 a 33.5 33.5 33.5 33.6 33.5 91 31.2 0.0 0.0 --- 0.00 30.067
11/03/2005 4:50 a 33.5 33.5 33.5 33.5 33.5 91 31.2 0.0 0.0 --- 0.00 30.070
11/03/2005 5:00 a 33.5 33.5 33.5 33.5 33.5 91 31.2 0.0 0.0 --- 0.00 30.079
11/03/2005 5:10 a 33.5 33.5 33.5 33.5 33.4 91 31.2 0.0 0.0 --- 0.00 30.084
11/03/2005 5:20 a 33.4 33.4 33.4 33.4 33.3 91 31.1 0.0 0.0 --- 0.00 30.088
11/03/2005 5:30 a 33.3 33.3 33.3 33.3 33.2 91 31.0 0.0 0.0 --- 0.00 30.090
11/03/2005 5:40 a 33.2 33.2 33.2 33.3 33.1 91 30.9 0.0 0.0 --- 0.00 30.089
11/03/2005 5:50 a 33.0 33.0 33.0 33.1 33.0 91 30.7 0.0 0.0 --- 0.00 30.091
11/03/2005 6:00 a 32.9 32.9 32.9 33.0 32.9 92 30.8 0.0 0.0 --- 0.00 30.090
11/03/2005 6:10 a 32.9 32.9 32.9 33.0 32.9 92 30.8 0.0 0.0 --- 0.00 30.088
11/03/2005 6:20 a 33.0 33.0 33.0 33.0 32.9 92 30.9 0.0 0.0 --- 0.00 30.087
11/03/2005 6:30 a 33.0 33.0 33.0 33.0 32.9 92 30.9 0.0 0.0 --- 0.00 30.086
11/03/2005 6:40 a 33.0 33.0 33.0 33.0 32.9 92 30.9 0.0 0.0 --- 0.00 30.086
11/03/2005 6:50 a 33.0 33.0 33.0 33.0 32.9 92 30.9 0.0 0.0 --- 0.00 30.086
11/03/2005 7:00 a 32.9 32.9 32.9 33.0 32.9 92 30.8 0.0 0.0 --- 0.00 30.085
11/03/2005 7:10 a 32.9 32.9 32.9 33.0 32.9 92 30.8 0.0 0.0 --- 0.00 30.078
11/03/2005 7:20 a 33.0 33.0 33.0 33.0 32.9 92 30.9 0.0 0.0 --- 0.00 30.074
11/03/2005 7:30 a 33.0 33.0 33.0 33.0 32.9 92 30.9 0.0 0.0 --- 0.00 30.077
11/03/2005 7:40 a 33.1 33.1 33.1 33.2 33.0 92 31.0 0.0 0.0 --- 0.00 30.075
11/03/2005 7:50 a 33.3 33.3 33.3 33.5 33.2 93 31.5 0.0 0.0 --- 0.00 30.070
11/03/2005 8:00 a 33.7 33.7 33.7 34.0 33.5 94 32.2 0.0 0.0 --- 0.00 30.076
11/03/2005 8:10 a 34.3 34.3 34.3 34.6 34.0 94 32.8 0.0 0.0 --- 0.00 30.079
11/03/2005 8:20 a 35.1 35.1 35.1 35.6 34.6 94 33.6 0.0 0.0 --- 0.00 30.077
11/03/2005 8:30 a 36.2 36.2 36.2 36.8 35.6 94 34.6 0.0 0.0 --- 0.00 30.080
11/03/2005 8:40 a 37.5 37.5 37.5 38.2 36.8 94 35.9 0.0 0.0 --- 0.00 30.081
11/03/2005 8:50 a 39.0 39.0 39.0 39.7 38.3 93 37.2 0.0 0.0 --- 0.00 30.082
11/03/2005 9:00 a 40.4 40.4 40.4 41.0 39.7 91 38.0 0.0 0.0 --- 0.00 30.082
11/03/2005 9:10 a 41.6 41.6 41.6 42.2 41.0 87 38.0 0.0 0.0 --- 0.00 30.079
11/03/2005 9:20 a 43.0 43.0 43.0 43.8 42.2 83 38.2 0.0 0.0 --- 0.00 30.074
11/03/2005 9:30 a 44.6 44.6 44.6 45.5 43.8 80 38.8 0.0 3.0 SE 0.00 30.074
11/03/2005 9:40 a 46.3 46.3 46.3 47.2 45.5 76 39.2 0.0 3.0 ESE 0.00 30.067
11/03/2005 9:50 a 48.1 48.1 48.1 49.0 47.2 71 39.2 0.0 2.0 SSE 0.00 30.059
11/03/2005 10:00 a 49.7 49.7 49.7 50.4 49.0 68 39.6 0.0 2.0 N 0.00 30.051
11/03/2005 10:10 a 51.1 51.1 51.1 51.8 50.4 65 39.8 0.0 3.0 WNW 0.00 30.048
11/03/2005 10:20 a 52.3 52.3 52.3 52.8 51.8 64 40.5 0.0 4.0 SSW 0.00 30.044
11/03/2005 10:30 a 53.3 53.3 53.3 53.7 52.8 62 40.6 0.0 3.0 SSW 0.00 30.036
11/03/2005 10:40 a 54.2 54.2 54.2 54.6 53.8 61 41.1 0.0 3.0 N 0.00 30.029
11/03/2005 10:50 a 55.1 55.1 55.1 55.6 54.6 59 41.0 0.0 2.0 WNW 0.00 30.017
11/03/2005 11:00 a 56.0 56.0 56.0 56.5 55.6 59 41.9 0.0 3.0 SSE 0.00 30.015
11/03/2005 11:10 a 57.0 57.0 57.0 57.4 56.5 55 41.0 1.0 4.0 SSE 0.00 30.008
11/03/2005 11:20 a 57.6 57.6 57.6 57.9 57.4 54 41.1 1.0 7.0 NNW 0.00 29.996
11/03/2005 11:30 a 58.2 58.2 58.2 58.5 57.9 53 41.2 1.0 5.0 N 0.00 29.995
11/03/2005 11:40 a 58.9 58.9 58.9 59.3 58.5 52 41.3 1.0 5.0 SSE 0.00 29.997
11/03/2005 11:50 a 59.7 59.7 59.7 60.0 59.3 50 41.0 1.0 4.0 N 0.00 29.986
11/03/2005 12:00 p 60.4 60.4 60.4 60.8 60.0 49 41.2 1.0 4.0 NNW 0.00 29.978
11/03/2005 12:10 p 61.1 61.1 61.1 61.2 60.8 47 40.7 1.0 5.0 S 0.00 29.981
11/03/2005 12:20 p 61.7 61.7 61.7 62.1 61.3 46 40.7 1.0 4.0 NNW 0.00 29.975
11/03/2005 12:30 p 62.4 62.4 62.4 62.7 62.1 44 40.2 1.0 3.0 NW 0.00 29.963
11/03/2005 12:40 p 63.0 63.0 63.0 63.2 62.7 43 40.2 1.0 5.0 NNW 0.00 29.956
11/03/2005 12:50 p 63.2 63.2 63.2 63.2 63.1 43 40.4 1.0 5.0 NNW 0.00 29.952
11/03/2005 1:00 p 63.1 63.1 63.1 63.2 63.1 43 40.3 1.0 5.0 NNW 0.00 29.940
11/03/2005 1:10 p 63.3 63.3 63.3 63.5 63.1 43 40.4 1.0 4.0 NNW 0.00 29.935
11/03/2005 1:20 p 63.7 63.7 63.7 64.0 63.5 42 40.2 1.0 4.0 N 0.00 29.930
11/03/2005 1:30 p 64.1 64.1 64.1 64.4 64.0 42 40.6 1.0 4.0 N 0.00 29.924
11/03/2005 1:40 p 64.5 64.5 64.5 64.6 64.4 40 39.7 1.0 4.0 S 0.00 29.917
11/03/2005 1:50 p 64.6 64.6 64.6 64.7 64.6 40 39.8 1.0 3.0 N 0.00 29.908
11/03/2005 2:00 p 64.8 64.8 64.8 64.9 64.7 40 39.9 1.0 4.0 NW 0.00 29.903
11/03/2005 2:10 p 65.0 65.0 65.0 65.0 64.9 39 39.5 1.0 4.0 SSE 0.00 29.906
11/03/2005 2:20 p 65.0 65.0 65.0 65.0 64.9 40 40.1 1.0 4.0 SE 0.00 29.906
11/03/2005 2:30 p 65.1 65.1 65.1 65.2 65.0 39 39.6 1.0 5.0 SSE 0.00 29.894
11/03/2005 2:40 p 65.3 65.3 65.3 65.4 65.2 39 39.7 1.0 4.0 NNW 0.00 29.885
11/03/2005 2:50 p 65.4 65.4 65.4 65.5 65.4 40 40.5 0.0 3.0 SSE 0.00 29.887
11/03/2005 3:00 p 65.5 65.5 65.5 65.5 65.4 39 39.9 1.0 4.0 SE 0.00 29.878
11/03/2005 3:10 p 65.5 65.5 65.5 65.5 65.4 39 39.9 0.0 3.0 NNW 0.00 29.878
11/03/2005 3:20 p 65.4 65.4 65.4 65.5 65.4 39 39.8 1.0 4.0 S 0.00 29.878
11/03/2005 3:30 p 65.5 65.5 65.5 65.6 65.5 39 39.9 1.0 4.0 NNW 0.00 29.878
11/03/2005 3:40 p 65.7 65.7 65.7 65.7 65.6 39 40.1 1.0 2.0 SE 0.00 29.876
11/03/2005 3:50 p 65.7 65.7 65.7 65.8 65.7 39 40.1 0.0 3.0 N 0.00 29.863
11/03/2005 4:00 p 65.8 65.8 65.8 65.8 65.7 38 39.5 1.0 4.0 SSE 0.00 29.865
11/03/2005 4:10 p 65.5 65.5 65.5 65.7 65.4 38 39.2 0.0 2.0 NW 0.00 29.867
11/03/2005 4:20 p 65.3 65.3 65.3 65.4 65.2 38 39.1 0.0 3.0 S 0.00 29.862
11/03/2005 4:30 p 64.9 64.9 64.9 65.2 64.7 38 38.7 1.0 3.0 N 0.00 29.863
11/03/2005 4:40 p 64.5 64.5 64.5 64.7 64.3 39 39.0 0.0 3.0 SE 0.00 29.862
11/03/2005 4:50 p 64.1 64.1 64.1 64.3 63.9 39 38.7 0.0 3.0 N 0.00 29.864
11/03/2005 5:00 p 63.8 63.8 63.8 63.9 63.6 40 39.0 0.0 2.0 WNW 0.00 29.864
11/03/2005 5:10 p 63.5 63.5 63.5 63.6 63.3 41 39.4 0.0 2.0 NW 0.00 29.865
11/03/2005 5:20 p 63.0 63.0 63.0 63.3 62.8 42 39.6 0.0 2.0 SSE 0.00 29.862
11/03/2005 5:30 p 62.6 62.6 62.6 62.8 62.3 43 39.8 0.0 2.0 SSE 0.00 29.864
11/03/2005 5:40 p 62.1 62.1 62.1 62.3 61.9 45 40.5 0.0 1.0 S 0.00 29.868
11/03/2005 5:50 p 61.7 61.7 61.7 61.9 61.5 46 40.7 0.0 2.0 S 0.00 29.870
11/03/2005 6:00 p 61.2 61.2 61.2 61.5 60.9 47 40.8 0.0 1.0 SSW 0.00 29.878
11/03/2005 6:10 p 60.6 60.6 60.6 60.9 60.3 48 40.8 0.0 1.0 WSW 0.00 29.880
11/03/2005 6:20 p 60.2 60.2 60.2 60.3 60.1 49 41.0 0.0 1.0 WSW 0.00 29.882
11/03/2005 6:30 p 59.9 59.9 59.9 60.1 59.8 50 41.2 0.0 3.0 SSE 0.00 29.883
11/03/2005 6:40 p 59.8 59.8 59.8 59.8 59.7 50 41.1 0.0 3.0 SE 0.00 29.886
11/03/2005 6:50 p 59.5 59.5 59.5 59.7 59.3 51 41.4 0.0 1.0 ESE 0.00 29.890
11/03/2005 7:00 p 59.0 59.0 59.0 59.3 58.8 52 41.4 0.0 0.0 --- 0.00 29.893
11/03/2005 7:10 p 58.7 58.7 58.7 58.9 58.6 51 40.6 0.0 0.0 --- 0.00 29.891
11/03/2005 7:20 p 58.5 58.5 58.5 58.6 58.4 53 41.4 0.0 3.0 SE 0.00 29.891
11/03/2005 7:30 p 58.3 58.3 58.3 58.4 58.1 53 41.3 0.0 0.0 --- 0.00 29.891
11/03/2005 7:40 p 58.0 58.0 58.0 58.1 58.0 53 41.0 0.0 1.0 SSE 0.00 29.894
11/03/2005 7:50 p 58.1 58.1 58.1 58.1 58.0 53 41.1 0.0 1.0 SSE 0.00 29.895
11/03/2005 8:00 p 57.9 57.9 57.9 58.0 57.7 54 41.4 0.0 0.0 --- 0.00 29.897
11/03/2005 8:10 p 57.5 57.5 57.5 57.7 57.3 54 41.0 0.0 0.0 --- 0.00 29.897
11/03/2005 8:20 p 57.2 57.2 57.2 57.4 57.0 55 41.2 0.0 0.0 --- 0.00 29.901
11/03/2005 8:30 p 56.8 56.8 56.8 57.0 56.6 57 41.7 0.0 0.0 --- 0.00 29.904
11/03/2005 8:40 p 56.4 56.4 56.4 56.6 56.3 57 41.4 0.0 0.0 --- 0.00 29.906
11/03/2005 8:50 p 56.1 56.1 56.1 56.3 56.0 58 41.5 0.0 0.0 --- 0.00 29.911
11/03/2005 9:00 p 56.0 56.0 56.0 56.0 55.9 58 41.4 0.0 0.0 --- 0.00 29.910
11/03/2005 9:10 p 55.9 55.9 55.9 56.0 55.9 58 41.4 0.0 0.0 --- 0.00 29.911
11/03/2005 9:20 p 55.9 55.9 55.9 55.9 55.8 59 41.8 0.0 0.0 --- 0.00 29.912
11/03/2005 9:30 p 55.7 55.7 55.7 55.8 55.6 59 41.6 0.0 0.0 --- 0.00 29.914
11/03/2005 9:40 p 55.5 55.5 55.5 55.6 55.3 60 41.9 0.0 0.0 --- 0.00 29.912
11/03/2005 9:50 p 55.0 55.0 55.0 55.3 54.8 60 41.4 0.0 0.0 --- 0.00 29.915
11/03/2005 10:00 p 54.5 54.5 54.5 54.7 54.2 62 41.8 0.0 0.0 --- 0.00 29.912
11/03/2005 10:10 p 54.0 54.0 54.0 54.2 53.7 63 41.7 0.0 0.0 --- 0.00 29.921
11/03/2005 10:20 p 53.5 53.5 53.5 53.7 53.2 66 42.4 0.0 0.0 --- 0.00 29.919
11/03/2005 10:30 p 52.9 52.9 52.9 53.2 52.5 67 42.3 0.0 0.0 --- 0.00 29.919
11/03/2005 10:40 p 52.2 52.2 52.2 52.6 51.8 68 42.0 0.0 0.0 --- 0.00 29.915
11/03/2005 10:50 p 51.5 51.5 51.5 51.8 51.2 69 41.7 0.0 0.0 --- 0.00 29.912
11/03/2005 11:00 p 51.0 51.0 51.0 51.2 50.7 70 41.6 0.0 0.0 --- 0.00 29.908
11/03/2005 11:10 p 50.5 50.5 50.5 50.7 50.3 71 41.5 0.0 0.0 --- 0.00 29.911
11/03/2005 11:20 p 50.0 50.0 50.0 50.3 49.7 73 41.7 0.0 0.0 --- 0.00 29.910
11/03/2005 11:30 p 49.4 49.4 49.4 49.7 49.1 74 41.5 0.0 0.0 --- 0.00 29.904
11/03/2005 11:40 p 48.9 48.9 48.9 49.2 48.7 75 41.3 0.0 0.0 --- 0.00 29.904
11/03/2005 11:50 p 48.5 48.5 48.5 48.7 48.3 77 41.6 0.0 0.0 --- 0.00 29.906
11/04/2005 12:00 a 48.2 48.2 48.2 48.3 48.1 78 41.7 0.0 0.0 --- 0.00 29.904
11/04/2005 12:10 a 47.9 47.9 47.9 48.1 47.8 79 41.7 0.0 0.0 --- 0.00 29.909
11/04/2005 12:20 a 47.8 47.8 47.8 47.9 47.8 78 41.3 0.0 0.0 --- 0.00 29.909
11/04/2005 12:30 a 47.8 47.8 47.8 48.0 47.8 78 41.3 0.0 0.0 --- 0.00 29.910
11/04/2005 12:40 a 48.1 48.1 48.1 48.2 47.9 77 41.2 0.0 0.0 --- 0.00 29.908
11/04/2005 12:50 a 48.2 48.2 48.2 48.3 48.2 78 41.7 0.0 0.0 --- 0.00 29.907
11/04/2005 1:00 a 48.3 48.3 48.3 48.3 48.2 78 41.8 0.0 0.0 --- 0.00 29.908
11/04/2005 1:10 a 48.2 48.2 48.2 48.2 48.1 78 41.7 0.0 0.0 --- 0.00 29.907
11/04/2005 1:20 a 47.9 47.9 47.9 48.1 47.8 79 41.7 0.0 0.0 --- 0.00 29.911
11/04/2005 1:30 a 47.8 47.8 47.8 47.8 47.7 79 41.6 0.0 0.0 --- 0.00 29.908
11/04/2005 1:40 a 47.6 47.6 47.6 47.7 47.5 79 41.4 0.0 0.0 --- 0.00 29.908
11/04/2005 1:50 a 47.4 47.4 47.4 47.5 47.3 79 41.2 0.0 0.0 --- 0.00 29.906
11/04/2005 2:00 a 47.3 47.3 47.3 47.3 47.1 80 41.5 0.0 0.0 --- 0.00 29.912
11/04/2005 2:10 a 47.0 47.0 47.0 47.2 46.9 80 41.2 0.0 0.0 --- 0.00 29.913
11/04/2005 2:20 a 46.7 46.7 46.7 46.9 46.5 81 41.2 0.0 0.0 --- 0.00 29.911
11/04/2005 2:30 a 46.2 46.2 46.2 46.5 46.0 82 41.0 0.0 0.0 --- 0.00 29.912
11/04/2005 2:40 a 45.8 45.8 45.8 46.0 45.6 83 40.9 0.0 0.0 --- 0.00 29.911
11/04/2005 2:50 a 45.4 45.4 45.4 45.6 45.2 83 40.5 0.0 0.0 --- 0.00 29.908
11/04/2005 3:00 a 45.0 45.0 45.0 45.2 44.8 84 40.5 0.0 0.0 --- 0.00 29.913
11/04/2005 3:10 a 44.5 44.5 44.5 44.8 44.2 85 40.3 0.0 0.0 --- 0.00 29.913
11/04/2005 3:20 a 43.9 43.9 43.9 44.1 43.6 86 40.0 0.0 0.0 --- 0.00 29.914
11/04/2005 3:30 a 43.5 43.5 43.5 43.6 43.3 87 39.9 0.0 0.0 --- 0.00 29.911
11/04/2005 3:40 a 43.1 43.1 43.1 43.3 42.9 87 39.5 0.0 0.0 --- 0.00 29.912
11/04/2005 3:50 a 42.7 42.7 42.7 42.9 42.5 88 39.4 0.0 0.0 --- 0.00 29.909
11/04/2005 4:00 a 42.4 42.4 42.4 42.5 42.3 88 39.1 0.0 0.0 --- 0.00 29.910
11/04/2005 4:10 a 42.2 42.2 42.2 42.3 42.1 89 39.2 0.0 0.0 --- 0.00 29.908
11/04/2005 4:20 a 41.9 41.9 41.9 42.1 41.8 89 38.9 0.0 0.0 --- 0.00 29.916
11/04/2005 4:30 a 41.7 41.7 41.7 41.8 41.6 89 38.7 0.0 0.0 --- 0.00 29.917
11/04/2005 4:40 a 41.5 41.5 41.5 41.6 41.4 89 38.5 0.0 0.0 --- 0.00 29.916
11/04/2005 4:50 a 41.3 41.3 41.3 41.4 41.1 89 38.3 0.0 0.0 --- 0.00 29.912
11/04/2005 5:00 a 41.0 41.0 41.0 41.1 40.9 89 38.0 0.0 0.0 --- 0.00 29.916
11/04/2005 5:10 a 40.8 40.8 40.8 40.9 40.7 90 38.1 0.0 0.0 --- 0.00 29.913
11/04/2005 5:20 a 40.6 40.6 40.6 40.7 40.5 90 37.9 0.0 0.0 --- 0.00 29.911
11/04/2005 5:30 a 40.5 40.5 40.5 40.6 40.4 90 37.8 0.0 0.0 --- 0.00 29.916
11/04/2005 5:40 a 40.4 40.4 40.4 40.4 40.3 90 37.7 0.0 0.0 --- 0.00 29.913
11/04/2005 5:50 a 40.2 40.2 40.2 40.3 40.1 90 37.5 0.0 0.0 --- 0.00 29.913
11/04/2005 6:00 a 40.0 40.0 40.0 40.1 39.9 91 37.6 0.0 0.0 --- 0.00 29.913
11/04/2005 6:10 a 39.9 39.9 39.9 40.0 39.9 91 37.5 0.0 0.0 --- 0.00 29.912
11/04/2005 6:20 a 39.9 39.9 39.9 39.9 39.8 91 37.5 0.0 0.0 --- 0.00 29.914
11/04/2005 6:30 a 39.7 39.7 39.7 39.8 39.5 91 37.3 0.0 0.0 --- 0.00 29.912
11/04/2005 6:40 a 39.4 39.4 39.4 39.6 39.3 91 37.0 0.0 0.0 --- 0.00 29.909
11/04/2005 6:50 a 39.3 39.3 39.3 39.3 39.2 91 36.9 0.0 0.0 --- 0.00 29.907
11/04/2005 7:00 a 39.2 39.2 39.2 39.2 39.2 91 36.8 0.0 0.0 --- 0.00 29.908
11/04/2005 7:10 a 39.2 39.2 39.2 39.2 39.1 92 37.1 0.0 0.0 --- 0.00 29.911
11/04/2005 7:20 a 39.0 39.0 39.0 39.1 39.0 92 36.9 0.0 0.0 --- 0.00 29.914
11/04/2005 7:30 a 39.0 39.0 39.0 39.0 39.0 92 36.9 0.0 0.0 --- 0.00 29.912
11/04/2005 7:40 a 39.0 39.0 39.0 39.0 39.0 92 36.9 0.0 0.0 --- 0.00 29.919
11/04/2005 7:50 a 39.1 39.1 39.1 39.2 39.0 93 37.3 0.0 0.0 --- 0.00 29.922
11/04/2005 8:00 a 39.3 39.3 39.3 39.5 39.2 93 37.4 0.0 0.0 --- 0.00 29.921
11/04/2005 8:10 a 39.7 39.7 39.7 40.0 39.5 93 37.8 0.0 0.0 --- 0.00 29.920
11/04/2005 8:20 a 40.6 40.6 40.6 41.3 40.0 94 39.0 0.0 0.0 --- 0.00 29.923
11/04/2005 8:30 a 42.1 42.1 42.1 42.8 41.3 94 40.5 0.0 0.0 --- 0.00 29.920
11/04/2005 8:40 a 43.6 43.6 43.6 44.4 42.8 92 41.4 0.0 0.0 --- 0.00 29.916
11/04/2005 8:50 a 45.2 45.2 45.2 45.9 44.4 91 42.7 0.0 0.0 --- 0.00 29.915
11/04/2005 9:00 a 46.6 46.6 46.6 47.3 45.9 89 43.5 0.0 0.0 --- 0.00 29.912
11/04/2005 9:10 a 48.1 48.1 48.1 48.8 47.3 85 43.8 0.0 0.0 --- 0.00 29.912
11/04/2005 9:20 a 49.5 49.5 49.5 50.2 48.8 82 44.2 0.0 2.0 SSE 0.00 29.915
11/04/2005 9:30 a 50.8 50.8 50.8 51.3 50.2 81 45.2 0.0 0.0 --- 0.00 29.917
11/04/2005 9:40 a 51.8 51.8 51.8 52.2 51.3 78 45.2 0.0 0.0 --- 0.00 29.917
11/04/2005 9:50 a 52.7 52.7 52.7 53.1 52.2 76 45.4 0.0 1.0 SSE 0.00 29.917
11/04/2005 10:00 a 53.5 53.5 53.5 53.9 53.1 73 45.1 0.0 0.0 --- 0.00 29.912
11/04/2005 10:10 a 54.2 54.2 54.2 54.5 53.8 71 45.0 0.0 3.0 SSE 0.00 29.905
11/04/2005 10:20 a 54.9 54.9 54.9 55.2 54.5 70 45.3 0.0 2.0 SSE 0.00 29.906
11/04/2005 10:30 a 55.6 55.6 55.6 55.9 55.3 68 45.2 0.0 0.0 --- 0.00 29.903
11/04/2005 10:40 a 56.2 56.2 56.2 56.5 55.9 66 45.0 0.0 0.0 --- 0.00 29.897
11/04/2005 10:50 a 56.8 56.8 56.8 57.1 56.5 67 46.0 0.0 2.0 SSE 0.00 29.891
11/04/2005 11:00 a 57.5 57.5 57.5 57.9 57.1 64 45.4 0.0 1.0 SSE 0.00 29.885
11/04/2005 11:10 a 58.3 58.3 58.3 58.8 57.9 63 45.8 0.0 0.0 --- 0.00 29.886
11/04/2005 11:20 a 59.1 59.1 59.1 59.5 58.8 61 45.7 0.0 0.0 --- 0.00 29.882
11/04/2005 11:30 a 59.9 59.9 59.9 60.3 59.5 59 45.6 0.0 3.0 SSE 0.00 29.878
11/04/2005 11:40 a 60.6 60.6 60.6 60.9 60.3 58 45.8 0.0 1.0 SSE 0.00 29.873
11/04/2005 11:50 a 61.4 61.4 61.4 61.8 60.9 57 46.0 0.0 2.0 SSE 0.00 29.866
11/04/2005 12:00 p 62.1 62.1 62.1 62.4 61.8 56 46.2 0.0 0.0 --- 0.00 29.857
11/04/2005 12:10 p 62.7 62.7 62.7 62.9 62.4 55 46.3 0.0 0.0 --- 0.00 29.856
11/04/2005 12:20 p 63.4 63.4 63.4 64.0 62.9 55 47.0 0.0 2.0 N 0.00 29.844
11/04/2005 12:30 p 64.5 64.5 64.5 65.0 64.0 52 46.5 0.0 2.0 N 0.00 29.840
11/04/2005 12:40 p 65.4 65.4 65.4 65.7 65.0 51 46.8 0.0 2.0 N 0.00 29.838
11/04/2005 12:50 p 65.9 65.9 65.9 66.0 65.7 51 47.3 0.0 2.0 N 0.00 29.831
11/04/2005 1:00 p 66.0 66.0 66.0 66.2 65.9 49 46.3 0.0 1.0 N 0.00 29.831
11/04/2005 1:10 p 66.4 66.4 66.4 66.6 66.2 49 46.7 0.0 3.0 N 0.00 29.826
11/04/2005 1:20 p 66.7 66.7 66.7 66.9 66.6 49 47.0 0.0 1.0 N 0.00 29.819
11/04/2005 1:30 p 67.1 67.1 67.1 67.3 66.9 47 46.2 0.0 2.0 N 0.00 29.820
11/04/2005 1:40 p 67.4 67.4 67.4 67.6 67.3 46 45.9 0.0 2.0 N 0.00 29.818
11/04/2005 1:50 p 67.6 67.6 67.6 67.6 67.5 46 46.1 0.0 2.0 N 0.00 29.818
11/04/2005 2:00 p 67.8 67.8 67.8 68.0 67.6 47 46.9 0.0 2.0 N 0.00 29.816
11/04/2005 2:10 p 66.0 68.1 68.1 68.2 68.0 46 46.6 0.0 1.0 N 0.00 29.809
11/04/2005 2:20 p 66.0 68.2 68.2 68.2 68.1 46 46.7 0.0 3.0 N 0.00 29.808
11/04/2005 2:30 p 66.0 68.1 68.1 68.2 68.1 46 46.6 0.0 3.0 N 0.00 29.801
11/04/2005 2:40 p 66.0 68.1 68.1 68.1 68.0 46 46.6 0.0 2.0 N 0.00 29.802
11/04/2005 2:50 p 67.9 67.9 67.9 68.0 67.8 48 47.5 0.0 1.0 N 0.00 29.797
11/04/2005 3:00 p 67.8 67.8 67.8 67.8 67.8 48 47.4 0.0 1.0 N 0.00 29.796
11/04/2005 3:10 p 67.7 67.7 67.7 67.8 67.5 49 47.9 0.0 0.0 --- 0.00 29.790
11/04/2005 3:20 p 67.4 67.4 67.4 67.6 67.3 50 48.1 0.0 3.0 ESE 0.00 29.790
11/04/2005 3:30 p 67.2 67.2 67.2 67.3 67.1 51 48.5 0.0 0.0 --- 0.00 29.788
11/04/2005 3:40 p 66.9 66.9 66.9 67.1 66.7 51 48.2 0.0 1.0 --- 0.00 29.786
11/04/2005 3:50 p 66.7 66.7 66.7 66.8 66.7 50 47.5 0.0 1.0 --- 0.00 29.784
11/04/2005 4:00 p 66.8 66.8 66.8 66.9 66.8 50 47.6 0.0 1.0 ESE 0.00 29.785
11/04/2005 4:10 p 66.9 66.9 66.9 66.9 66.8 51 48.2 0.0 0.0 --- 0.00 29.785
11/04/2005 4:20 p 66.5 66.5 66.5 66.8 66.3 52 48.4 0.0 0.0 --- 0.00 29.786
11/04/2005 4:30 p 66.0 66.0 66.0 66.3 65.7 53 48.4 0.0 0.0 --- 0.00 29.788
11/04/2005 4:40 p 65.5 65.5 65.5 65.7 65.2 54 48.4 0.0 0.0 --- 0.00 29.782
11/04/2005 4:50 p 65.0 65.0 65.0 65.2 64.7 56 48.9 0.0 0.0 --- 0.00 29.779
11/04/2005 5:00 p 64.4 64.4 64.4 64.7 64.1 56 48.4 0.0 0.0 --- 0.00 29.779
11/04/2005 5:10 p 64.0 64.0 64.0 64.1 63.7 56 48.0 0.0 0.0 --- 0.00 29.789
11/04/2005 5:20 p 63.5 63.5 63.5 63.7 63.3 58 48.5 0.0 1.0 ESE 0.00 29.800
11/04/2005 5:30 p 63.0 63.0 63.0 63.3 62.8 59 48.5 0.0 0.0 --- 0.00 29.799
11/04/2005 5:40 p 62.5 62.5 62.5 62.8 62.2 60 48.4 0.0 0.0 --- 0.00 29.805
11/04/2005 5:50 p 61.8 61.8 61.8 62.2 61.4 61 48.2 0.0 0.0 --- 0.00 29.801
11/04/2005 6:00 p 61.3 61.3 61.3 61.4 61.2 62 48.2 0.0 0.0 --- 0.00 29.805
11/04/2005 6:10 p 61.0 61.0 61.0 61.2 60.9 62 47.9 0.0 0.0 --- 0.00 29.813
11/04/2005 6:20 p 60.7 60.7 60.7 60.9 60.5 63 48.0 0.0 0.0 --- 0.00 29.818
11/04/2005 6:30 p 60.3 60.3 60.3 60.5 60.1 64 48.1 0.0 0.0 --- 0.00 29.827
11/04/2005 6:40 p 60.1 60.1 60.1 60.1 60.0 65 48.3 0.0 0.0 --- 0.00 29.826
11/04/2005 6:50 p 59.9 59.9 59.9 60.0 59.7 67 48.9 0.0 0.0 --- 0.00 29.828
11/04/2005 7:00 p 59.3 59.3 59.3 59.6 59.0 68 48.8 0.0 0.0 --- 0.00 29.830
11/04/2005 7:10 p 58.6 58.6 58.6 59.0 58.3 69 48.5 0.0 0.0 --- 0.00 29.827
11/04/2005 7:20 p 58.0 58.0 58.0 58.3 57.7 71 48.7 0.0 0.0 --- 0.00 29.831
11/04/2005 7:30 p 57.4 57.4 57.4 57.7 57.1 72 48.5 0.0 0.0 --- 0.00 29.828
11/04/2005 7:40 p 56.9 56.9 56.9 57.1 56.7 72 48.0 0.0 0.0 --- 0.00 29.828
11/04/2005 7:50 p 56.6 56.6 56.6 56.7 56.4 72 47.7 0.0 0.0 --- 0.00 29.830
11/04/2005 8:00 p 56.4 56.4 56.4 56.5 56.4 73 47.9 0.0 0.0 --- 0.00 29.830
11/04/2005 8:10 p 56.3 56.3 56.3 56.4 56.2 74 48.1 0.0 0.0 --- 0.00 29.828
11/04/2005 8:20 p 56.0 56.0 56.0 56.2 55.8 74 47.8 0.0 0.0 --- 0.00 29.832
11/04/2005 8:30 p 55.7 55.7 55.7 55.8 55.6 75 47.9 0.0 0.0 --- 0.00 29.834
11/04/2005 8:40 p 55.5 55.5 55.5 55.6 55.4 75 47.7 0.0 0.0 --- 0.00 29.840
11/04/2005 8:50 p 55.4 55.4 55.4 55.5 55.3 74 47.3 0.0 0.0 --- 0.00 29.837
11/04/2005 9:00 p 55.4 55.4 55.4 55.6 55.3 74 47.3 0.0 0.0 --- 0.00 29.839
11/04/2005 9:10 p 55.7 55.7 55.7 55.8 55.5 73 47.2 0.0 0.0 --- 0.00 29.837
11/04/2005 9:20 p 56.0 56.0 56.0 56.2 55.8 73 47.5 0.0 0.0 --- 0.00 29.838
11/04/2005 9:30 p 56.4 56.4 56.4 56.7 56.2 72 47.5 0.0 0.0 --- 0.00 29.840
11/04/2005 9:40 p 56.8 56.8 56.8 56.9 56.7 71 47.5 0.0 0.0 --- 0.00 29.844
11/04/2005 9:50 p 57.0 57.0 57.0 57.1 56.9 72 48.1 0.0 0.0 --- 0.00 29.851
11/04/2005 10:00 p 57.4 57.4 57.4 57.5 57.1 71 48.1 0.0 0.0 --- 0.00 29.850
11/04/2005 10:10 p 57.5 57.5 57.5 57.6 57.5 70 47.8 0.0 0.0 --- 0.00 29.851
11/04/2005 10:20 p 57.4 57.4 57.4 57.5 57.2 71 48.1 0.0 0.0 --- 0.00 29.851
11/04/2005 10:30 p 57.2 57.2 57.2 57.3 57.1 71 47.9 0.0 0.0 --- 0.00 29.851
11/04/2005 10:40 p 56.9 56.9 56.9 57.1 56.7 71 47.6 0.0 0.0 --- 0.00 29.846
11/04/2005 10:50 p 56.5 56.5 56.5 56.7 56.3 72 47.6 0.0 0.0 --- 0.00 29.849
11/04/2005 11:00 p 56.1 56.1 56.1 56.3 55.9 73 47.6 0.0 0.0 --- 0.00 29.853
11/04/2005 11:10 p 55.7 55.7 55.7 55.9 55.4 74 47.6 0.0 0.0 --- 0.00 29.850
11/04/2005 11:20 p 55.1 55.1 55.1 55.4 54.9 75 47.3 0.0 0.0 --- 0.00 29.849
11/04/2005 11:30 p 54.6 54.6 54.6 54.9 54.4 76 47.2 0.0 0.0 --- 0.00 29.848
11/04/2005 11:40 p 54.3 54.3 54.3 54.4 54.1 76 46.9 0.0 0.0 --- 0.00 29.851
11/04/2005 11:50 p 54.0 54.0 54.0 54.1 53.8 78 47.3 0.0 0.0 --- 0.00 29.850
11/05/2005 12:00 a 53.7 53.7 53.7 53.9 53.5 78 47.0 0.0 0.0 --- 0.00 29.860
11/05/2005 12:10 a 53.3 53.3 53.3 53.5 53.1 80 47.3 0.0 0.0 --- 0.00 29.851
11/05/2005 12:20 a 53.0 53.0 53.0 53.1 52.8 81 47.3 0.0 0.0 --- 0.00 29.851
11/05/2005 12:30 a 52.6 52.6 52.6 52.8 52.5 82 47.3 0.0 0.0 --- 0.00 29.853
11/05/2005 12:40 a 52.3 52.3 52.3 52.5 52.2 82 47.0 0.0 0.0 --- 0.00 29.852
11/05/2005 12:50 a 51.9 51.9 51.9 52.2 51.7 83 46.9 0.0 0.0 --- 0.00 29.858
11/05/2005 1:00 a 51.5 51.5 51.5 51.7 51.3 84 46.8 0.0 0.0 --- 0.00 29.857
11/05/2005 1:10 a 51.1 51.1 51.1 51.3 50.9 85 46.8 0.0 0.0 --- 0.00 29.853
11/05/2005 1:20 a 50.7 50.7 50.7 50.9 50.6 86 46.7 0.0 0.0 --- 0.00 29.853
11/05/2005 1:30 a 50.5 50.5 50.5 50.6 50.3 87 46.8 0.0 0.0 --- 0.00 29.854
11/05/2005 1:40 a 50.2 50.2 50.2 50.3 50.1 87 46.5 0.0 0.0 --- 0.00 29.857
11/05/2005 1:50 a 50.1 50.1 50.1 50.2 50.0 87 46.4 0.0 0.0 --- 0.00 29.861
11/05/2005 2:00 a 50.0 50.0 50.0 50.1 49.9 88 46.6 0.0 0.0 --- 0.00 29.862
11/05/2005 2:10 a 49.8 49.8 49.8 49.9 49.8 88 46.4 0.0 0.0 --- 0.00 29.862
11/05/2005 2:20 a 49.7 49.7 49.7 49.8 49.6 89 46.6 0.0 0.0 --- 0.00 29.868
11/05/2005 2:30 a 49.5 49.5 49.5 49.6 49.4 88 46.1 0.0 0.0 --- 0.00 29.869
11/05/2005 2:40 a 49.3 49.3 49.3 49.4 49.2 89 46.2 0.0 0.0 --- 0.00 29.861
11/05/2005 2:50 a 49.1 49.1 49.1 49.2 48.9 89 46.0 0.0 0.0 --- 0.00 29.861
11/05/2005 3:00 a 48.7 48.7 48.7 48.9 48.6 89 45.6 0.0 0.0 --- 0.00 29.869
11/05/2005 3:10 a 48.4 48.4 48.4 48.6 48.2 90 45.6 0.0 0.0 --- 0.00 29.872
11/05/2005 3:20 a 48.1 48.1 48.1 48.2 47.9 90 45.3 0.0 0.0 --- 0.00 29.867
11/05/2005 3:30 a 47.7 47.7 47.7 47.9 47.6 91 45.2 0.0 0.0 --- 0.00 29.866
11/05/2005 3:40 a 47.5 47.5 47.5 47.6 47.4 91 45.0 0.0 0.0 --- 0.00 29.866
11/05/2005 3:50 a 47.3 47.3 47.3 47.4 47.2 91 44.8 0.0 0.0 --- 0.00 29.864
11/05/2005 4:00 a 47.1 47.1 47.1 47.3 47.0 91 44.6 0.0 0.0 --- 0.00 29.860
11/05/2005 4:10 a 46.9 46.9 46.9 47.0 46.9 91 44.4 0.0 0.0 --- 0.00 29.863
11/05/2005 4:20 a 46.8 46.8 46.8 46.9 46.7 91 44.3 0.0 0.0 --- 0.00 29.866
11/05/2005 4:30 a 46.6 46.6 46.6 46.7 46.5 92 44.4 0.0 0.0 --- 0.00 29.869
11/05/2005 4:40 a 46.5 46.5 46.5 46.6 46.4 92 44.3 0.0 0.0 --- 0.00 29.871
11/05/2005 4:50 a 46.4 46.4 46.4 46.5 46.4 92 44.2 0.0 0.0 --- 0.00 29.874
11/05/2005 5:00 a 46.4 46.4 46.4 46.4 46.4 93 44.5 0.0 0.0 --- 0.00 29.872
11/05/2005 5:10 a 46.4 46.4 46.4 46.5 46.4 93 44.5 0.0 0.0 --- 0.00 29.877
11/05/2005 5:20 a 46.5 46.5 46.5 46.5 46.4 92 44.3 0.0 0.0 --- 0.00 29.875
11/05/2005 5:30 a 46.3 46.3 46.3 46.4 46.2 93 44.4 0.0 0.0 --- 0.00 29.879
11/05/2005 5:40 a 46.2 46.2 46.2 46.2 46.1 93 44.3 0.0 0.0 --- 0.00 29.879
11/05/2005 5:50 a 46.1 46.1 46.1 46.1 46.1 93 44.2 0.0 0.0 --- 0.00 29.879
11/05/2005 6:00 a 46.1 46.1 46.1 46.1 46.0 93 44.2 0.0 0.0 --- 0.00 29.880
11/05/2005 6:10 a 46.0 46.0 46.0 46.1 46.0 93 44.1 0.0 0.0 --- 0.00 29.882
11/05/2005 6:20 a 45.9 45.9 45.9 46.0 45.9 94 44.3 0.0 0.0 --- 0.00 29.882
11/05/2005 6:30 a 45.9 45.9 45.9 45.9 45.9 94 44.3 0.0 0.0 --- 0.00 29.883
11/05/2005 6:40 a 45.8 45.8 45.8 45.9 45.8 93 43.9 0.0 0.0 --- 0.00 29.883
11/05/2005 6:50 a 45.7 45.7 45.7 45.8 45.6 93 43.8 0.0 0.0 --- 0.00 29.885
11/05/2005 7:00 a 45.6 45.6 45.6 45.7 45.5 93 43.7 0.0 0.0 --- 0.00 29.889
11/05/2005 7:10 a 45.4 45.4 45.4 45.5 45.4 94 43.8 0.0 0.0 --- 0.00 29.890
11/05/2005 7:20 a 45.3 45.3 45.3 45.4 45.2 94 43.7 0.0 0.0 --- 0.00 29.894
11/05/2005 7:30 a 45.2 45.2 45.2 45.3 45.2 94 43.6 0.0 0.0 --- 0.00 29.897
11/05/2005 7:40 a 45.2 45.2 45.2 45.3 45.2 94 43.6 0.0 0.0 --- 0.00 29.904
11/05/2005 7:50 a 45.3 45.3 45.3 45.4 45.2 94 43.7 0.0 0.0 --- 0.00 29.902
11/05/2005 8:00 a 45.6 45.6 45.6 45.8 45.4 95 44.3 0.0 0.0 --- 0.00 29.908
11/05/2005 8:10 a 46.0 46.0 46.0 46.3 45.8 95 44.7 0.0 0.0 --- 0.00 29.916
11/05/2005 8:20 a 46.7 46.7 46.7 47.1 46.3 95 45.3 0.0 0.0 --- 0.00 29.920
11/05/2005 8:30 a 47.6 47.6 47.6 48.2 47.1 96 46.5 0.0 0.0 --- 0.00 29.919
11/05/2005 8:40 a 48.9 48.9 48.9 49.5 48.3 94 47.3 0.0 0.0 --- 0.00 29.921
11/05/2005 8:50 a 50.0 50.0 50.0 50.4 49.5 93 48.1 0.0 0.0 --- 0.00 29.924
11/05/2005 9:00 a 50.8 50.8 50.8 51.1 50.4 92 48.6 0.0 0.0 --- 0.00 29.927
11/05/2005 9:10 a 51.6 51.6 51.6 52.1 51.1 90 48.8 0.0 1.0 ESE 0.00 29.933
11/05/2005 9:20 a 52.6 52.6 52.6 53.1 52.1 87 48.8 0.0 0.0 --- 0.00 29.930
11/05/2005 9:30 a 53.5 53.5 53.5 53.9 53.1 87 49.7 0.0 0.0 --- 0.00 29.927
11/05/2005 9:40 a 54.2 54.2 54.2 54.6 53.9 85 49.8 0.0 0.0 --- 0.00 29.927
11/05/2005 9:50 a 55.0 55.0 55.0 55.3 54.6 83 49.9 0.0 2.0 ESE 0.00 29.931
11/05/2005 10:00 a 55.4 55.4 55.4 55.6 55.3 82 50.0 0.0 0.0 --- 0.00 29.929
11/05/2005 10:10 a 55.7 55.7 55.7 55.8 55.6 82 50.3 0.0 0.0 --- 0.00 29.930
11/05/2005 10:20 a 55.9 55.9 55.9 56.0 55.8 82 50.5 0.0 0.0 --- 0.00 29.930
11/05/2005 10:30 a 56.1 56.1 56.1 56.1 56.0 82 50.7 0.0 0.0 --- 0.00 29.926
11/05/2005 10:40 a 56.2 56.2 56.2 56.4 56.1 82 50.8 0.0 0.0 --- 0.00 29.926
11/05/2005 10:50 a 56.6 56.6 56.6 56.9 56.3 81 50.8 0.0 0.0 --- 0.00 29.929
11/05/2005 11:00 a 57.3 57.3 57.3 57.7 56.9 78 50.5 0.0 0.0 --- 0.00 29.928
11/05/2005 11:10 a 58.1 58.1 58.1 58.5 57.8 75 50.2 0.0 0.0 --- 0.00 29.930
11/05/2005 11:20 a 58.8 58.8 58.8 59.2 58.5 75 50.9 0.0 0.0 --- 0.00 29.925
11/05/2005 11:30 a 59.4 59.4 59.4 59.6 59.1 73 50.8 0.0 0.0 --- 0.00 29.926
11/05/2005 11:40 a 60.0 60.0 60.0 60.3 59.6 71 50.6 0.0 1.0 --- 0.00 29.918
11/05/2005 11:50 a 60.6 60.6 60.6 61.0 60.3 70 50.8 0.0 3.0 ESE 0.00 29.914
11/05/2005 12:00 p 61.3 61.3 61.3 61.5 60.9 69 51.1 0.0 2.0 ESE 0.00 29.909
11/05/2005 12:10 p 61.9 61.9 61.9 62.3 61.5 66 50.4 0.0 3.0 ESE 0.00 29.910
11/05/2005 12:20 p 62.9 62.9 62.9 63.3 62.3 65 51.0 0.0 3.0 ESE 0.00 29.906
11/05/2005 12:30 p 63.8 63.8 63.8 64.3 63.3 62 50.5 0.0 1.0 E 0.00 29.901
11/05/2005 12:40 p 64.8 64.8 64.8 65.3 64.3 61 51.1 0.0 1.0 E 0.00 29.897
11/05/2005 12:50 p 65.7 65.7 65.7 66.1 65.3 59 51.0 0.0 3.0 E 0.00 29.894
11/05/2005 1:00 p 66.2 66.2 66.2 66.2 66.0 59 51.5 0.0 0.0 --- 0.00 29.889
11/05/2005 1:10 p 66.0 66.0 66.0 66.2 65.9 60 51.7 0.0 0.0 --- 0.00 29.888
11/05/2005 1:20 p 66.0 66.0 66.0 66.2 65.9 59 51.3 0.0 1.0 E 0.00 29.893
11/05/2005 1:30 p 66.5 66.5 66.5 66.9 66.2 58 51.3 0.0 0.0 --- 0.00 29.885
11/05/2005 1:40 p 67.3 67.3 67.3 67.7 66.9 56 51.1 0.0 0.0 --- 0.00 29.882
11/05/2005 1:50 p 67.4 68.0 68.0 68.3 67.7 57 52.2 0.0 0.0 --- 0.00 29.883
11/05/2005 2:00 p 68.4 68.5 68.5 68.6 68.3 57 52.7 0.0 0.0 --- 0.00 29.882
11/05/2005 2:10 p 68.4 68.8 68.8 68.9 68.6 57 53.0 0.0 1.0 ESE 0.00 29.877
11/05/2005 2:20 p 68.4 69.1 69.1 69.2 68.9 57 53.2 0.0 1.0 --- 0.00 29.877
11/05/2005 2:30 p 68.6 69.2 69.2 69.2 69.1 58 53.8 0.0 0.0 --- 0.00 29.876
11/05/2005 2:40 p 69.0 69.0 69.0 69.1 69.0 60 54.6 0.0 0.0 --- 0.00 29.871
11/05/2005 2:50 p 69.0 68.9 68.9 69.0 68.9 60 54.5 0.0 0.0 --- 0.00 29.872
11/05/2005 3:00 p 69.0 68.9 68.9 68.9 68.9 60 54.5 0.0 0.0 --- 0.00 29.871
11/05/2005 3:10 p 69.0 68.9 68.9 68.9 68.8 60 54.5 0.0 0.0 --- 0.00 29.872
11/05/2005 3:20 p 69.0 68.8 68.8 68.8 68.7 62 55.3 0.0 0.0 --- 0.00 29.869
11/05/2005 3:30 p 69.0 68.7 68.7 68.8 68.7 62 55.2 0.0 0.0 --- 0.00 29.867
11/05/2005 3:40 p 68.6 68.8 68.8 69.0 68.7 58 53.4 0.0 0.0 --- 0.00 29.871
11/05/2005 3:50 p 68.8 69.2 69.2 69.5 69.0 59 54.3 0.0 0.0 --- 0.00 29.872
11/05/2005 4:00 p 69.2 69.5 69.5 69.5 69.5 56 53.1 0.0 0.0 --- 0.00 29.869
11/05/2005 4:10 p 69.4 69.5 69.5 69.5 69.4 57 53.6 0.0 0.0 --- 0.00 29.868
11/05/2005 4:20 p 68.6 69.3 69.3 69.4 69.1 58 53.9 0.0 0.0 --- 0.00 29.868
11/05/2005 4:30 p 68.8 68.9 68.9 69.1 68.7 59 54.0 0.0 0.0 --- 0.00 29.869
11/05/2005 4:40 p 69.0 68.5 68.5 68.7 68.3 60 54.1 0.0 0.0 --- 0.00 29.870
11/05/2005 4:50 p 68.0 68.1 68.1 68.3 67.8 61 54.2 0.0 0.0 --- 0.00 29.870
11/05/2005 5:00 p 67.5 67.5 67.5 67.8 67.0 64 54.9 0.0 0.0 --- 0.00 29.874
11/05/2005 5:10 p 66.6 66.6 66.6 67.0 66.1 67 55.3 0.0 0.0 --- 0.00 29.877
11/05/2005 5:20 p 65.6 65.6 65.6 66.1 65.2 68 54.8 0.0 0.0 --- 0.00 29.879
11/05/2005 5:30 p 64.7 64.7 64.7 65.2 64.2 71 55.1 0.0 0.0 --- 0.00 29.885
11/05/2005 5:40 p 63.5 63.5 63.5 64.2 62.9 73 54.7 0.0 0.0 --- 0.00 29.894
11/05/2005 5:50 p 62.4 62.4 62.4 62.9 62.0 75 54.4 0.0 0.0 --- 0.00 29.898
11/05/2005 6:00 p 61.6 61.6 61.6 62.0 61.3 77 54.3 0.0 0.0 --- 0.00 29.898
11/05/2005 6:10 p 60.9 60.9 60.9 61.3 60.6 78 54.0 0.0 0.0 --- 0.00 29.895
11/05/2005 6:20 p 60.2 60.2 60.2 60.6 59.8 80 54.0 0.0 0.0 --- 0.00 29.895
11/05/2005 6:30 p 59.5 59.5 59.5 59.8 59.2 81 53.7 0.0 0.0 --- 0.00 29.898
11/05/2005 6:40 p 58.8 58.8 58.8 59.2 58.5 82 53.3 0.0 0.0 --- 0.00 29.902
11/05/2005 6:50 p 58.2 58.2 58.2 58.5 57.9 84 53.4 0.0 0.0 --- 0.00 29.901
11/05/2005 7:00 p 57.7 57.7 57.7 57.9 57.5 84 52.9 0.0 0.0 --- 0.00 29.905
11/05/2005 7:10 p 57.3 57.3 57.3 57.5 57.1 85 52.8 0.0 0.0 --- 0.00 29.905
11/05/2005 7:20 p 56.9 56.9 56.9 57.1 56.7 85 52.4 0.0 0.0 --- 0.00 29.908
11/05/2005 7:30 p 56.4 56.4 56.4 56.7 56.2 85 52.0 0.0 0.0 --- 0.00 29.908
11/05/2005 7:40 p 55.9 55.9 55.9 56.2 55.8 87 52.1 0.0 0.0 --- 0.00 29.905
11/05/2005 7:50 p 55.6 55.6 55.6 55.8 55.4 88 52.1 0.0 0.0 --- 0.00 29.904
11/05/2005 8:00 p 55.2 55.2 55.2 55.3 55.1 89 52.0 0.0 0.0 --- 0.00 29.905
11/05/2005 8:10 p 54.9 54.9 54.9 55.0 54.7 90 52.0 0.0 0.0 --- 0.00 29.906
11/05/2005 8:20 p 54.6 54.6 54.6 54.8 54.4 90 51.7 0.0 0.0 --- 0.00 29.911
11/05/2005 8:30 p 54.2 54.2 54.2 54.4 54.0 90 51.3 0.0 0.0 --- 0.00 29.913
11/05/2005 8:40 p 53.9 53.9 53.9 54.0 53.8 90 51.0 0.0 0.0 --- 0.00 29.914
11/05/2005 8:50 p 53.6 53.6 53.6 53.8 53.4 90 50.7 0.0 0.0 --- 0.00 29.918
11/05/2005 9:00 p 53.2 53.2 53.2 53.4 53.1 91 50.6 0.0 0.0 --- 0.00 29.916
11/05/2005 9:10 p 53.0 53.0 53.0 53.1 52.9 92 50.7 0.0 0.0 --- 0.00 29.920
11/05/2005 9:20 p 52.8 52.8 52.8 52.9 52.7 92 50.5 0.0 0.0 --- 0.00 29.922
11/05/2005 9:30 p 52.6 52.6 52.6 52.7 52.4 92 50.3 0.0 0.0 --- 0.00 29.920
11/05/2005 9:40 p 52.3 52.3 52.3 52.4 52.1 93 50.3 0.0 0.0 --- 0.00 29.924
11/05/2005 9:50 p 52.0 52.0 52.0 52.1 51.9 93 50.0 0.0 0.0 --- 0.00 29.924
11/05/2005 10:00 p 51.7 51.7 51.7 51.9 51.5 92 49.5 0.0 0.0 --- 0.00 29.923
11/05/2005 10:10 p 51.3 51.3 51.3 51.4 51.2 93 49.3 0.0 0.0 --- 0.00 29.920
11/05/2005 10:20 p 51.0 51.0 51.0 51.2 50.9 93 49.1 0.0 0.0 --- 0.00 29.918
11/05/2005 10:30 p 50.8 50.8 50.8 50.9 50.7 93 48.9 0.0 0.0 --- 0.00 29.924
11/05/2005 10:40 p 50.6 50.6 50.6 50.7 50.5 93 48.7 0.0 0.0 --- 0.00 29.925
11/05/2005 10:50 p 50.4 50.4 50.4 50.5 50.3 94 48.7 0.0 0.0 --- 0.00 29.926
11/05/2005 11:00 p 50.3 50.3 50.3 50.3 50.3 94 48.6 0.0 0.0 --- 0.00 29.924
11/05/2005 11:10 p 50.2 50.2 50.2 50.3 50.1 94 48.5 0.0 0.0 --- 0.00 29.920
11/05/2005 11:20 p 50.0 50.0 50.0 50.1 49.9 93 48.1 0.0 0.0 --- 0.00 29.919
11/05/2005 11:30 p 49.9 49.9 49.9 50.0 49.8 94 48.2 0.0 0.0 --- 0.00 29.921
11/05/2005 11:40 p 49.7 49.7 49.7 49.8 49.5 93 47.8 0.0 0.0 --- 0.00 29.921
11/05/2005 11:50 p 49.4 49.4 49.4 49.5 49.3 94 47.7 0.0 0.0 --- 0.00 29.922
11/06/2005 12:00 a 49.2 49.2 49.2 49.3 49.1 94 47.6 0.0 0.0 --- 0.00 29.927
11/06/2005 12:10 a 49.1 49.1 49.1 49.2 49.0 94 47.5 0.0 0.0 --- 0.00 29.925
11/06/2005 12:20 a 48.8 48.8 48.8 49.0 48.7 93 46.9 0.0 0.0 --- 0.00 29.919
11/06/2005 12:30 a 48.6 48.6 48.6 48.7 48.5 94 47.0 0.0 0.0 --- 0.00 29.917
11/06/2005 12:40 a 48.4 48.4 48.4 48.6 48.3 94 46.8 0.0 0.0 --- 0.00 29.914
11/06/2005 12:50 a 48.2 48.2 48.2 48.3 48.2 94 46.6 0.0 0.0 --- 0.00 29.913
11/06/2005 1:00 a 48.1 48.1 48.1 48.2 48.0 94 46.5 0.0 0.0 --- 0.00 29.916
11/06/2005 1:10 a 47.8 47.8 47.8 48.0 47.7 93 45.9 0.0 0.0 --- 0.00 29.914
11/06/2005 1:20 a 47.6 47.6 47.6 47.7 47.5 94 46.0 0.0 0.0 --- 0.00 29.913
11/06/2005 1:30 a 47.4 47.4 47.4 47.5 47.2 94 45.8 0.0 0.0 --- 0.00 29.911
11/06/2005 1:40 a 47.2 47.2 47.2 47.2 47.1 94 45.6 0.0 0.0 --- 0.00 29.907
11/06/2005 1:50 a 47.0 47.0 47.0 47.1 46.9 94 45.4 0.0 0.0 --- 0.00 29.904
11/06/2005 2:00 a 46.9 46.9 46.9 46.9 46.8 94 45.3 0.0 0.0 --- 0.00 29.904
11/06/2005 2:10 a 46.8 46.8 46.8 46.9 46.7 94 45.2 0.0 0.0 --- 0.00 29.903
11/06/2005 2:20 a 46.7 46.7 46.7 46.7 46.6 94 45.1 0.0 0.0 --- 0.00 29.909
11/06/2005 2:30 a 46.6 46.6 46.6 46.6 46.5 94 45.0 0.0 0.0 --- 0.00 29.908
11/06/2005 2:40 a 46.4 46.4 46.4 46.5 46.3 94 44.8 0.0 0.0 --- 0.00 29.907
11/06/2005 2:50 a 46.3 46.3 46.3 46.4 46.1 94 44.7 0.0 0.0 --- 0.00 29.909
11/06/2005 3:00 a 46.1 46.1 46.1 46.2 46.0 94 44.5 0.0 0.0 --- 0.00 29.908
11/06/2005 3:10 a 45.9 45.9 45.9 46.0 45.8 94 44.3 0.0 0.0 --- 0.00 29.907
11/06/2005 3:20 a 45.8 45.8 45.8 45.8 45.7 94 44.2 0.0 0.0 --- 0.00 29.910
11/06/2005 3:30 a 45.7 45.7 45.7 45.7 45.6 94 44.1 0.0 0.0 --- 0.00 29.906
11/06/2005 3:40 a 45.5 45.5 45.5 45.6 45.5 94 43.9 0.0 0.0 --- 0.00 29.906
11/06/2005 3:50 a 45.5 45.5 45.5 45.5 45.5 94 43.9 0.0 0.0 --- 0.00 29.903
11/06/2005 4:00 a 45.5 45.5 45.5 45.5 45.4 94 43.9 0.0 0.0 --- 0.00 29.896
11/06/2005 4:10 a 45.4 45.4 45.4 45.5 45.3 94 43.8 0.0 0.0 --- 0.00 29.892
11/06/2005 4:20 a 45.2 45.2 45.2 45.3 45.1 94 43.6 0.0 0.0 --- 0.00 29.891
11/06/2005 4:30 a 45.0 45.0 45.0 45.1 44.9 94 43.4 0.0 0.0 --- 0.00 29.894
11/06/2005 4:40 a 44.8 44.8 44.8 45.0 44.7 94 43.2 0.0 0.0 --- 0.00 29.895
11/06/2005 4:50 a 44.7 44.7 44.7 44.7 44.6 94 43.1 0.0 0.0 --- 0.00 29.898
11/06/2005 5:00 a 44.6 44.6 44.6 44.6 44.5 94 43.0 0.0 0.0 --- 0.00 29.901
11/06/2005 5:10 a 44.4 44.4 44.4 44.5 44.3 94 42.8 0.0 0.0 --- 0.00 29.897
11/06/2005 5:20 a 44.2 44.2 44.2 44.3 44.1 94 42.6 0.0 0.0 --- 0.00 29.900
11/06/2005 5:30 a 44.2 44.2 44.2 44.2 44.1 94 42.6 0.0 0.0 --- 0.00 29.904
11/06/2005 5:40 a 44.2 44.2 44.2 44.3 44.1 95 42.9 0.0 0.0 --- 0.00 29.906
11/06/2005 5:50 a 44.4 44.4 44.4 44.5 44.3 95 43.1 0.0 0.0 --- 0.00 29.908
11/06/2005 6:00 a 44.6 44.6 44.6 44.7 44.5 96 43.5 0.0 0.0 --- 0.00 29.907
11/06/2005 6:10 a 44.9 44.9 44.9 45.1 44.7 96 43.8 0.0 0.0 --- 0.00 29.905
11/06/2005 6:20 a 45.2 45.2 45.2 45.3 45.1 96 44.1 0.0 0.0 --- 0.00 29.907
11/06/2005 6:30 a 45.5 45.5 45.5 45.9 45.3 97 44.7 0.0 0.0 --- 0.00 29.906
11/06/2005 6:40 a 45.9 45.9 45.9 46.0 45.8 97 45.1 0.0 0.0 --- 0.00 29.905
11/06/2005 6:50 a 46.1 46.1 46.1 46.3 46.0 97 45.3 0.0 0.0 --- 0.00 29.904
11/06/2005 7:00 a 46.4 46.4 46.4 46.5 46.2 97 45.6 0.0 0.0 --- 0.00 29.907
11/06/2005 7:10 a 46.6 46.6 46.6 46.7 46.5 97 45.8 0.0 0.0 --- 0.00 29.904
11/06/2005 7:20 a 46.8 46.8 46.8 46.9 46.7 97 46.0 0.0 0.0 --- 0.00 29.914
11/06/2005 7:30 a 46.9 46.9 46.9 46.9 46.8 97 46.1 0.0 0.0 --- 0.00 29.918
11/06/2005 7:40 a 46.9 46.9 46.9 47.0 46.8 97 46.1 0.0 0.0 --- 0.00 29.919
11/06/2005 7:50 a 47.2 47.2 47.2 47.4 47.0 97 46.4 0.0 0.0 --- 0.00 29.917
11/06/2005 8:00 a 47.5 47.5 47.5 47.7 47.4 97 46.7 0.0 0.0 --- 0.00 29.918
11/06/2005 8:10 a 47.8 47.8 47.8 48.0 47.7 97 47.0 0.0 0.0 --- 0.00 29.919
11/06/2005 8:20 a 48.2 48.2 48.2 48.4 48.0 97 47.4 0.0 0.0 --- 0.00 29.919
11/06/2005 8:30 a 48.5 48.5 48.5 48.8 48.4 98 48.0 0.0 0.0 --- 0.00 29.920
11/06/2005 8:40 a 49.0 49.0 49.0 49.3 48.7 98 48.5 0.0 0.0 --- 0.00 29.918
11/06/2005 8:50 a 49.4 49.4 49.4 49.6 49.3 98 48.9 0.0 0.0 --- 0.00 29.926
11/06/2005 9:00 a 49.7 49.7 49.7 49.8 49.5 98 49.2 0.0 0.0 --- 0.00 29.920
11/06/2005 9:10 a 50.0 50.0 50.0 50.2 49.8 98 49.5 0.0 0.0 --- 0.00 29.915
11/06/2005 9:20 a 50.4 50.4 50.4 50.7 50.2 98 49.9 0.0 0.0 --- 0.00 29.915
11/06/2005 9:30 a 51.1 51.1 51.1 51.4 50.7 98 50.6 0.0 0.0 --- 0.00 29.911
11/06/2005 9:40 a 51.7 51.7 51.7 51.9 51.4 98 51.2 0.0 0.0 --- 0.00 29.910
11/06/2005 9:50 a 52.1 52.1 52.1 52.3 51.9 98 51.6 0.0 0.0 --- 0.00 29.907
11/06/2005 10:00 a 52.7 52.7 52.7 53.0 52.3 98 52.2 0.0 0.0 --- 0.00 29.911
11/06/2005 10:10 a 53.2 53.2 53.2 53.4 53.0 99 52.9 0.0 0.0 --- 0.00 29.909
11/06/2005 10:20 a 53.6 53.6 53.6 53.8 53.4 98 53.1 0.0 0.0 --- 0.00 29.907
11/06/2005 10:30 a 54.1 54.1 54.1 54.4 53.8 99 53.8 0.0 0.0 --- 0.00 29.900
11/06/2005 10:40 a 54.6 54.6 54.6 54.8 54.4 98 54.0 0.0 2.0 ESE 0.00 29.902
11/06/2005 10:50 a 55.1 55.1 55.1 55.4 54.8 98 54.5 0.0 0.0 --- 0.00 29.896
11/06/2005 11:00 a 55.7 55.7 55.7 56.1 55.4 97 54.9 0.0 1.0 --- 0.00 29.895
11/06/2005 11:10 a 56.6 56.6 56.6 57.1 56.1 94 54.9 0.0 1.0 ESE 0.00 29.886
11/06/2005 11:20 a 57.7 57.7 57.7 58.3 57.1 91 55.1 0.0 0.0 --- 0.00 29.882
11/06/2005 11:30 a 58.9 58.9 58.9 59.5 58.3 87 55.0 0.0 2.0 ESE 0.00 29.875
11/06/2005 11:40 a 60.0 60.0 60.0 60.6 59.5 85 55.5 0.0 3.0 ESE 0.00 29.871
11/06/2005 11:50 a 61.3 61.3 61.3 61.9 60.7 81 55.4 0.0 3.0 N 0.00 29.865
11/06/2005 12:00 p 62.3 62.3 62.3 62.8 61.9 78 55.4 0.0 2.0 N 0.00 29.857
11/06/2005 12:10 p 63.1 63.1 63.1 63.6 62.8 78 56.1 0.0 1.0 N 0.00 29.855
11/06/2005 12:20 p 64.1 64.1 64.1 64.4 63.6 74 55.7 0.0 3.0 N 0.00 29.846
11/06/2005 12:30 p 64.7 64.7 64.7 65.1 64.4 74 56.2 0.0 2.0 N 0.00 29.834
11/06/2005 12:40 p 65.5 65.5 65.5 65.8 65.1 72 56.2 1.0 4.0 N 0.00 29.828
11/06/2005 12:50 p 66.1 66.1 66.1 66.5 65.8 72 56.8 0.0 2.0 N 0.00 29.821
11/06/2005 1:00 p 66.9 66.9 66.9 67.3 66.5 71 57.2 0.0 2.0 N 0.00 29.813
11/06/2005 1:10 p 67.7 67.7 67.7 68.0 67.4 70 57.6 0.0 2.0 N 0.00 29.807
11/06/2005 1:20 p 68.0 68.2 68.2 68.5 68.0 69 57.7 0.0 3.0 N 0.00 29.800
11/06/2005 1:30 p 69.0 68.8 68.8 69.1 68.5 68 57.8 0.0 2.0 N 0.00 29.793
11/06/2005 1:40 p 70.0 69.5 69.5 69.8 69.1 68 58.5 0.0 1.0 N 0.00 29.780
11/06/2005 1:50 p 70.0 70.0 70.0 70.3 69.8 65 57.7 0.0 1.0 N 0.00 29.775
11/06/2005 2:00 p 71.0 70.6 70.6 70.9 70.3 64 57.8 0.0 2.0 N 0.00 29.769
11/06/2005 2:10 p 71.0 71.1 71.1 71.4 70.9 64 58.3 0.0 1.0 N 0.00 29.759
11/06/2005 2:20 p 72.0 71.5 71.5 71.6 71.4 63 58.3 0.0 2.0 N 0.00 29.749
11/06/2005 2:30 p 72.0 71.9 71.9 72.1 71.7 62 58.2 0.0 2.0 N 0.00 29.747
11/06/2005 2:40 p 71.9 72.4 72.4 72.6 72.1 59 57.3 0.0 3.0 N 0.00 29.737
11/06/2005 2:50 p 73.0 73.0 73.0 73.4 72.6 56 56.4 1.0 5.0 N 0.00 29.738
11/06/2005 3:00 p 74.0 73.5 73.5 73.6 73.3 54 55.9 1.0 3.0 N 0.00 29.733
11/06/2005 3:10 p 74.0 73.7 73.7 73.7 73.6 54 56.0 0.0 3.0 NNW 0.00 29.733
11/06/2005 3:20 p 74.0 73.7 73.7 73.7 73.6 54 56.0 0.0 3.0 NNW 0.00 29.732
11/06/2005 3:30 p 74.0 73.7 73.7 73.7 73.7 55 56.5 1.0 3.0 N 0.00 29.735
11/06/2005 3:40 p 74.0 73.7 73.7 73.7 73.6 54 56.0 1.0 4.0 N 0.00 29.727
11/06/2005 3:50 p 74.0 73.7 73.7 73.7 73.6 54 56.0 0.0 2.0 NW 0.00 29.729
11/06/2005 4:00 p 74.0 73.5 73.5 73.7 73.2 55 56.4 0.0 3.0 NNW 0.00 29.725
11/06/2005 4:10 p 73.0 72.9 72.9 73.2 72.6 55 55.8 1.0 3.0 NNW 0.00 29.709
11/06/2005 4:20 p 71.6 72.3 72.3 72.5 72.1 56 55.7 0.0 2.0 N 0.00 29.711
11/06/2005 4:30 p 71.7 71.9 71.9 72.1 71.8 57 55.9 1.0 3.0 NNW 0.00 29.710
11/06/2005 4:40 p 71.7 71.6 71.6 71.8 71.4 57 55.6 0.0 1.0 NNW 0.00 29.707
11/06/2005 4:50 p 70.6 71.3 71.3 71.5 71.2 58 55.8 0.0 2.0 NNW 0.00 29.703
11/06/2005 5:00 p 70.6 71.2 71.2 71.3 71.2 58 55.7 0.0 2.0 N 0.00 29.705
11/06/2005 5:10 p 70.4 71.2 71.2 71.2 71.1 57 55.2 0.0 4.0 N 0.00 29.698
11/06/2005 5:20 p 70.4 71.1 71.1 71.1 71.0 57 55.1 1.0 2.0 NW 0.00 29.702
11/06/2005 5:30 p 70.8 70.8 70.8 71.1 70.6 59 55.8 0.0 0.0 --- 0.00 29.699
11/06/2005 5:40 p 70.0 70.1 70.1 70.6 69.6 63 56.9 0.0 0.0 --- 0.00 29.697
11/06/2005 5:50 p 69.0 69.2 69.2 69.6 68.9 65 56.9 0.0 1.0 N 0.00 29.694
11/06/2005 6:00 p 69.0 68.7 68.7 68.9 68.4 66 56.9 0.0 0.0 --- 0.00